Observation data for Big Lake on 07/20/2019      Previous  Date       Current Mesonet Observations  Soil Data  Daily Summary Page  Observations in Plain Language
KBI1 200500Z 14006KT 27/14 A2998 RMK A01 T02700142  RH  045%=      5-min Rain = 0
KBI1 200501Z 15005KT 27/14 A2998 RMK A01 T02700142  RH  045%=      5-min Rain = 0
KBI1 200502Z 15005KT 27/14 A2998 RMK A01 T02700142  RH  045%=      5-min Rain = 0
KBI1 200503Z 14005KT 27/14 A2998 RMK A01 T02690142  RH  046%=      5-min Rain = 0
KBI1 200504Z 14006KT 27/14 A2998 RMK A01 T02680141  RH  046%=      5-min Rain = 0
KBI1 200505Z 14007KT 27/14 A2998 RMK A01 T02680142  RH  046%=      5-min Rain = 0
KBI1 200506Z 14005KT 27/14 A2998 RMK A01 T02680141  RH  046%=      5-min Rain = 0
KBI1 200507Z 13006KT 27/14 A2998 RMK A01 T02680142  RH  046%=      5-min Rain = 0
KBI1 200508Z 14006KT 27/14 A2998 RMK A01 T02680142  RH  046%=      5-min Rain = 0
KBI1 200509Z 14007KT 27/14 A2998 RMK A01 T02680142  RH  046%=      5-min Rain = 0
KBI1 200510Z 14006KT 27/14 A2998 RMK A01 T02680141  RH  046%=      5-min Rain = 0
KBI1 200511Z 14005KT 27/14 A2998 RMK A01 T02680142  RH  046%=      5-min Rain = 0
KBI1 200512Z 14005KT 27/14 A2998 RMK A01 T02670142  RH  046%=      5-min Rain = 0
KBI1 200513Z 14006KT 27/14 A2998 RMK A01 T02670142  RH  046%=      5-min Rain = 0
KBI1 200514Z 14005KT 27/14 A2998 RMK A01 T02670142  RH  046%=      5-min Rain = 0
KBI1 200515Z 14006KT 27/14 A2998 RMK A01 T02660142  RH  046%=      5-min Rain = 0
KBI1 200516Z 14007KT 27/14 A2998 RMK A01 T02650142  RH  047%=      5-min Rain = 0
KBI1 200517Z 14007KT 27/14 A2998 RMK A01 T02660142  RH  047%=      5-min Rain = 0
KBI1 200518Z 14007KT 27/14 A2998 RMK A01 T02650142  RH  047%=      5-min Rain = 0
KBI1 200519Z 14006KT 27/14 A2998 RMK A01 T02650142  RH  047%=      5-min Rain = 0
KBI1 200520Z 14007KT 27/14 A2998 RMK A01 T02650142  RH  047%=      5-min Rain = 0
KBI1 200521Z 14007KT 27/14 A2998 RMK A01 T02650142  RH  047%=      5-min Rain = 0
KBI1 200522Z 15007KT 27/14 A2998 RMK A01 T02660143  RH  047%=      5-min Rain = 0
KBI1 200523Z 15007KT 27/14 A2998 RMK A01 T02660143  RH  047%=      5-min Rain = 0
KBI1 200524Z 14006KT 27/14 A2998 RMK A01 T02660143  RH  047%=      5-min Rain = 0
KBI1 200525Z 15007KT 27/14 A2998 RMK A01 T02660143  RH  047%=      5-min Rain = 0
KBI1 200526Z 14007KT 27/14 A2998 RMK A01 T02660144  RH  047%=      5-min Rain = 0
KBI1 200527Z 15006KT 27/14 A2998 RMK A01 T02660144  RH  047%=      5-min Rain = 0
KBI1 200528Z 14007KT 27/14 A2998 RMK A01 T02660144  RH  047%=      5-min Rain = 0
KBI1 200529Z 15010G15KT 27/15 A2998 RMK A01 T02660145  RH  047%=      5-min Rain = 0
KBI1 200530Z 15007G14KT 27/15 A2998 RMK A01 T02670146  RH  047%=      5-min Rain = 0
KBI1 200531Z 14008G13KT 27/15 A2998 RMK A01 T02670147  RH  047%=      5-min Rain = 0
KBI1 200532Z 15010G15KT 27/15 A2998 RMK A01 T02670147  RH  047%=      5-min Rain = 0
KBI1 200533Z 14009KT 27/15 A2998 RMK A01 T02680147  RH  048%=      5-min Rain = 0
KBI1 200534Z 15009KT 27/15 A2998 RMK A01 T02680147  RH  048%=      5-min Rain = 0
KBI1 200535Z 15008KT 27/15 A2998 RMK A01 T02680148  RH  048%=      5-min Rain = 0
KBI1 200536Z 15010KT 27/15 A2998 RMK A01 T02680148  RH  048%=      5-min Rain = 0
KBI1 200537Z 15009KT 27/15 A2998 RMK A01 T02680149  RH  048%=      5-min Rain = 0
KBI1 200538Z 15008G14KT 27/15 A2998 RMK A01 T02680149  RH  048%=      5-min Rain = 0
KBI1 200539Z 15010KT 27/15 A2998 RMK A01 T02680150  RH  048%=      5-min Rain = 0
KBI1 200540Z 15009KT 27/15 A2998 RMK A01 T02680150  RH  048%=      5-min Rain = 0
KBI1 200541Z 15010KT 27/15 A2998 RMK A01 T02680150  RH  048%=      5-min Rain = 0
KBI1 200542Z 15009G14KT 27/15 A2998 RMK A01 T02680150  RH  048%=      5-min Rain = 0
KBI1 200543Z 15008KT 27/15 A2998 RMK A01 T02680150  RH  049%=      5-min Rain = 0
KBI1 200544Z 15008KT 27/15 A2998 RMK A01 T02680151  RH  049%=      5-min Rain = 0
KBI1 200545Z 15009KT 27/15 A2998 RMK A01 T02670151  RH  049%=      5-min Rain = 0
KBI1 200546Z 15009KT 27/15 A2998 RMK A01 T02670151  RH  049%=      5-min Rain = 0
KBI1 200547Z 14009KT 27/15 A2998 RMK A01 T02660151  RH  049%=      5-min Rain = 0
KBI1 200548Z 15009KT 27/15 A2998 RMK A01 T02660152  RH  049%=      5-min Rain = 0
KBI1 200549Z 14008KT 27/15 A2998 RMK A01 T02660152  RH  049%=      5-min Rain = 0
KBI1 200550Z 14007KT 27/15 A2998 RMK A01 T02660152  RH  050%=      5-min Rain = 0
KBI1 200551Z 15008KT 27/15 A2998 RMK A01 T02650152  RH  050%=      5-min Rain = 0
KBI1 200552Z 14007KT 27/15 A2998 RMK A01 T02650152  RH  050%=      5-min Rain = 0
KBI1 200553Z 14007KT 27/15 A2998 RMK A01 T02650152  RH  050%=      5-min Rain = 0
KBI1 200554Z 15007KT 27/15 A2998 RMK A01 T02650152  RH  050%=      5-min Rain = 0
KBI1 200555Z 15009KT 26/15 A2998 RMK A01 T02640153  RH  050%=      5-min Rain = 0
KBI1 200556Z 15008KT 26/15 A2998 RMK A01 T02640153  RH  050%=      5-min Rain = 0
KBI1 200557Z 15007KT 26/15 A2998 RMK A01 T02640152  RH  050%=      5-min Rain = 0
KBI1 200558Z 16009KT 26/15 A2998 RMK A01 T02640153  RH  050%=      5-min Rain = 0
KBI1 200559Z 15008G13KT 26/15 A2998 RMK A01 T02640153  RH  051%=      5-min Rain = 0
KBI1 200600Z 15009KT 26/15 A2998 RMK A01 T02630153  RH  051%=      5-min Rain = 0
KBI1 200601Z 15009KT 26/15 A2998 RMK A01 T02640154  RH  051%=      5-min Rain = 0
KBI1 200602Z 14010KT 26/15 A2998 RMK A01 T02640154  RH  051%=      5-min Rain = 0
KBI1 200603Z 16010G15KT 26/15 A2998 RMK A01 T02640154  RH  051%=      5-min Rain = 0
KBI1 200604Z 14008G13KT 26/15 A2998 RMK A01 T02640154  RH  051%=      5-min Rain = 0
KBI1 200605Z 15010KT 27/16 A2998 RMK A01 T02650155  RH  051%=      5-min Rain = 0
KBI1 200606Z 16010G15KT 27/16 A2998 RMK A01 T02650156  RH  051%=      5-min Rain = 0
KBI1 200607Z 15010KT 27/16 A2998 RMK A01 T02650156  RH  051%=      5-min Rain = 0
KBI1 200608Z 16009KT 27/16 A2998 RMK A01 T02650156  RH  051%=      5-min Rain = 0
KBI1 200609Z 15009KT 27/16 A2998 RMK A01 T02660157  RH  051%=      5-min Rain = 0
KBI1 200610Z 15008KT 27/16 A2998 RMK A01 T02660157  RH  051%=      5-min Rain = 0
KBI1 200611Z 15008KT 27/16 A2998 RMK A01 T02660157  RH  051%=      5-min Rain = 0
KBI1 200612Z 15008KT 27/16 A2998 RMK A01 T02660157  RH  051%=      5-min Rain = 0
KBI1 200613Z 15007KT 27/16 A2998 RMK A01 T02660158  RH  051%=      5-min Rain = 0
KBI1 200614Z 14008KT 27/16 A2998 RMK A01 T02660158  RH  052%=      5-min Rain = 0
KBI1 200615Z 15010KT 27/16 A2998 RMK A01 T02660159  RH  052%=      5-min Rain = 0
KBI1 200616Z 15008KT 27/16 A2998 RMK A01 T02660159  RH  052%=      5-min Rain = 0
KBI1 200617Z 15009G15KT 27/16 A2998 RMK A01 T02660159  RH  052%=      5-min Rain = 0
KBI1 200618Z 15009KT 27/16 A2998 RMK A01 T02660159  RH  052%=      5-min Rain = 0
KBI1 200619Z 15007KT 27/16 A2998 RMK A01 T02660159  RH  052%=      5-min Rain = 0
KBI1 200620Z 15010KT 27/16 A2998 RMK A01 T02650159  RH  052%=      5-min Rain = 0
KBI1 200621Z 14007KT 26/16 A2998 RMK A01 T02640158  RH  052%=      5-min Rain = 0
KBI1 200622Z 15007KT 26/16 A2998 RMK A01 T02640158  RH  052%=      5-min Rain = 0
KBI1 200623Z 14008KT 26/16 A2998 RMK A01 T02630158  RH  052%=      5-min Rain = 0
KBI1 200624Z 15008KT 26/16 A2998 RMK A01 T02630158  RH  053%=      5-min Rain = 0
KBI1 200625Z 15008KT 26/16 A2998 RMK A01 T02620158  RH  053%=      5-min Rain = 0
KBI1 200626Z 15010KT 26/16 A2998 RMK A01 T02620158  RH  053%=      5-min Rain = 0
KBI1 200627Z 14009G16KT 26/16 A2997 RMK A01 T02620158  RH  053%=      5-min Rain = 0
KBI1 200628Z 14010G16KT 26/16 A2997 RMK A01 T02610157  RH  053%=      5-min Rain = 0
KBI1 200629Z 15009KT 26/16 A2997 RMK A01 T02610157  RH  053%=      5-min Rain = 0
KBI1 200630Z 15008G13KT 26/16 A2997 RMK A01 T02610157  RH  053%=      5-min Rain = 0
KBI1 200631Z 15008KT 26/16 A2997 RMK A01 T02600157  RH  053%=      5-min Rain = 0
KBI1 200632Z 15009G14KT 26/16 A2997 RMK A01 T02590157  RH  053%=      5-min Rain = 0
KBI1 200633Z 15009KT 26/16 A2997 RMK A01 T02590158  RH  054%=      5-min Rain = 0
KBI1 200634Z 15010KT 26/16 A2997 RMK A01 T02590158  RH  054%=      5-min Rain = 0
KBI1 200635Z 15009KT 26/16 A2997 RMK A01 T02590159  RH  054%=      5-min Rain = 0
KBI1 200636Z 15007KT 26/16 A2997 RMK A01 T02580158  RH  054%=      5-min Rain = 0
KBI1 200637Z 15008KT 26/16 A2997 RMK A01 T02580159  RH  054%=      5-min Rain = 0
KBI1 200638Z 15009KT 26/16 A2997 RMK A01 T02580160  RH  054%=      5-min Rain = 0
KBI1 200639Z 14009KT 26/16 A2997 RMK A01 T02580160  RH  055%=      5-min Rain = 0
KBI1 200640Z 14011KT 26/16 A2997 RMK A01 T02580161  RH  055%=      5-min Rain = 0
KBI1 200641Z 15009KT 26/16 A2997 RMK A01 T02580161  RH  055%=      5-min Rain = 0
KBI1 200642Z 15009KT 26/16 A2997 RMK A01 T02580162  RH  055%=      5-min Rain = 0
KBI1 200643Z 15008G14KT 26/16 A2997 RMK A01 T02580163  RH  056%=      5-min Rain = 0
KBI1 200644Z 15009G14KT 26/16 A2997 RMK A01 T02580164  RH  056%=      5-min Rain = 0
KBI1 200645Z 15010KT 26/16 A2997 RMK A01 T02580164  RH  056%=      5-min Rain = 0
KBI1 200646Z 14009KT 26/17 A2997 RMK A01 T02580165  RH  056%=      5-min Rain = 0
KBI1 200647Z 15007KT 26/17 A2997 RMK A01 T02580165  RH  057%=      5-min Rain = 0
KBI1 200648Z 15010KT 26/17 A2997 RMK A01 T02580166  RH  057%=      5-min Rain = 0
KBI1 200649Z 15012G17KT 26/17 A2997 RMK A01 T02580166  RH  057%=      5-min Rain = 0
KBI1 200650Z 14010KT 26/17 A2997 RMK A01 T02590167  RH  057%=      5-min Rain = 0
KBI1 200651Z 15008G13KT 26/17 A2997 RMK A01 T02590168  RH  057%=      5-min Rain = 0
KBI1 200652Z 14011G18KT 26/17 A2996 RMK A01 T02590168  RH  057%=      5-min Rain = 0
KBI1 200653Z 15011G17KT 26/17 A2996 RMK A01 T02590168  RH  057%=      5-min Rain = 0
KBI1 200654Z 15010KT 26/17 A2996 RMK A01 T02590168  RH  057%=      5-min Rain = 0
KBI1 200655Z 15012KT 26/17 A2996 RMK A01 T02590168  RH  058%=      5-min Rain = 0
KBI1 200656Z 15008KT 26/17 A2996 RMK A01 T02590169  RH  058%=      5-min Rain = 0
KBI1 200657Z 15011KT 26/17 A2996 RMK A01 T02580169  RH  058%=      5-min Rain = 0
KBI1 200658Z 15011G16KT 26/17 A2996 RMK A01 T02580169  RH  058%=      5-min Rain = 0
KBI1 200659Z 14009KT 26/17 A2996 RMK A01 T02580169  RH  058%=      5-min Rain = 0
KBI1 200700Z 15009G14KT 26/17 A2996 RMK A01 T02570169  RH  058%=      5-min Rain = 0
KBI1 200701Z 14007KT 26/17 A2996 RMK A01 T02570169  RH  058%=      5-min Rain = 0
KBI1 200702Z 14011KT 26/17 A2996 RMK A01 T02560169  RH  059%=      5-min Rain = 0
KBI1 200703Z 15009G14KT 26/17 A2996 RMK A01 T02560169  RH  059%=      5-min Rain = 0
KBI1 200704Z 15009KT 26/17 A2996 RMK A01 T02560169  RH  059%=      5-min Rain = 0
KBI1 200705Z 15008KT 26/17 A2996 RMK A01 T02560169  RH  059%=      5-min Rain = 0
KBI1 200706Z 15008G13KT 26/17 A2996 RMK A01 T02550169  RH  059%=      5-min Rain = 0
KBI1 200707Z 15009KT 26/17 A2996 RMK A01 T02550170  RH  059%=      5-min Rain = 0
KBI1 200708Z 15009KT 26/17 A2996 RMK A01 T02550170  RH  059%=      5-min Rain = 0
KBI1 200709Z 15010KT 26/17 A2996 RMK A01 T02550170  RH  059%=      5-min Rain = 0
KBI1 200710Z 15009KT 26/17 A2996 RMK A01 T02550170  RH  059%=      5-min Rain = 0
KBI1 200711Z 15012KT 26/17 A2996 RMK A01 T02550170  RH  060%=      5-min Rain = 0
KBI1 200712Z 14011KT 26/17 A2996 RMK A01 T02550170  RH  060%=      5-min Rain = 0
KBI1 200713Z 15009KT 26/17 A2996 RMK A01 T02550170  RH  060%=      5-min Rain = 0
KBI1 200714Z 15008KT 25/17 A2996 RMK A01 T02540170  RH  060%=      5-min Rain = 0
KBI1 200715Z 15010KT 26/17 A2996 RMK A01 T02550171  RH  060%=      5-min Rain = 0
KBI1 200716Z 15009G16KT 25/17 A2996 RMK A01 T02540171  RH  060%=      5-min Rain = 0
KBI1 200717Z 15008KT 25/17 A2996 RMK A01 T02540170  RH  060%=      5-min Rain = 0
KBI1 200718Z 14011KT 25/17 A2996 RMK A01 T02530170  RH  060%=      5-min Rain = 0
KBI1 200719Z 15009KT 25/17 A2996 RMK A01 T02530171  RH  060%=      5-min Rain = 0
KBI1 200720Z 15010KT 25/17 A2996 RMK A01 T02530171  RH  060%=      5-min Rain = 0
KBI1 200721Z 15009G14KT 25/17 A2996 RMK A01 T02530171  RH  060%=      5-min Rain = 0
KBI1 200722Z 15009KT 25/17 A2996 RMK A01 T02530171  RH  060%=      5-min Rain = 0
KBI1 200723Z 15007KT 25/17 A2996 RMK A01 T02530171  RH  060%=      5-min Rain = 0
KBI1 200724Z 15008KT 25/17 A2996 RMK A01 T02520171  RH  061%=      5-min Rain = 0
KBI1 200725Z 15011KT 25/17 A2996 RMK A01 T02520171  RH  061%=      5-min Rain = 0
KBI1 200726Z 15011KT 25/17 A2996 RMK A01 T02520171  RH  061%=      5-min Rain = 0
KBI1 200727Z 14008KT 25/17 A2996 RMK A01 T02520172  RH  061%=      5-min Rain = 0
KBI1 200728Z 14008KT 25/17 A2996 RMK A01 T02520172  RH  061%=      5-min Rain = 0
KBI1 200729Z 15010G15KT 25/17 A2996 RMK A01 T02510172  RH  061%=      5-min Rain = 0
KBI1 200730Z 14009KT 25/17 A2996 RMK A01 T02510172  RH  062%=      5-min Rain = 0
KBI1 200731Z 15007G12KT 25/17 A2996 RMK A01 T02510173  RH  062%=      5-min Rain = 0
KBI1 200732Z 15010KT 25/17 A2996 RMK A01 T02510173  RH  062%=      5-min Rain = 0
KBI1 200733Z 15011KT 25/17 A2996 RMK A01 T02510174  RH  062%=      5-min Rain = 0
KBI1 200734Z 15013KT 25/18 A2996 RMK A01 T02510175  RH  063%=      5-min Rain = 0
KBI1 200735Z 14009KT 25/18 A2996 RMK A01 T02520177  RH  063%=      5-min Rain = 0
KBI1 200736Z 15009KT 25/18 A2996 RMK A01 T02520177  RH  063%=      5-min Rain = 0
KBI1 200737Z 15010KT 25/18 A2996 RMK A01 T02520177  RH  063%=      5-min Rain = 0
KBI1 200738Z 15009KT 25/18 A2996 RMK A01 T02520177  RH  063%=      5-min Rain = 0
KBI1 200739Z 15011KT 25/18 A2996 RMK A01 T02520178  RH  064%=      5-min Rain = 0
KBI1 200740Z 15009KT 25/18 A2996 RMK A01 T02520179  RH  064%=      5-min Rain = 0
KBI1 200741Z 14007G13KT 25/18 A2996 RMK A01 T02530179  RH  064%=      5-min Rain = 0
KBI1 200742Z 15010KT 25/18 A2996 RMK A01 T02520180  RH  064%=      5-min Rain = 0
KBI1 200743Z 15011KT 25/18 A2996 RMK A01 T02520180  RH  064%=      5-min Rain = 0
KBI1 200744Z 15008KT 25/18 A2996 RMK A01 T02530181  RH  064%=      5-min Rain = 0
KBI1 200745Z 16009KT 25/18 A2996 RMK A01 T02530181  RH  064%=      5-min Rain = 0
KBI1 200746Z 15008KT 25/18 A2996 RMK A01 T02530181  RH  065%=      5-min Rain = 0
KBI1 200747Z 15008G13KT 25/18 A2996 RMK A01 T02530182  RH  065%=      5-min Rain = 0
KBI1 200748Z 15009KT 25/18 A2996 RMK A01 T02530182  RH  065%=      5-min Rain = 0
KBI1 200749Z 15007G13KT 25/18 A2996 RMK A01 T02530182  RH  065%=      5-min Rain = 0
KBI1 200750Z 16009G14KT 25/18 A2996 RMK A01 T02520183  RH  065%=      5-min Rain = 0
KBI1 200751Z 15010KT 25/18 A2996 RMK A01 T02520184  RH  066%=      5-min Rain = 0
KBI1 200752Z 15010KT 25/18 A2996 RMK A01 T02530184  RH  066%=      5-min Rain = 0
KBI1 200753Z 15010KT 25/18 A2996 RMK A01 T02530184  RH  066%=      5-min Rain = 0
KBI1 200754Z 16010KT 25/19 A2996 RMK A01 T02530186  RH  066%=      5-min Rain = 0
KBI1 200755Z 15009KT 25/19 A2996 RMK A01 T02530186  RH  066%=      5-min Rain = 0
KBI1 200756Z 16010KT 25/19 A2996 RMK A01 T02530186  RH  066%=      5-min Rain = 0
KBI1 200757Z 16010KT 25/19 A2996 RMK A01 T02540187  RH  067%=      5-min Rain = 0
KBI1 200758Z 16009KT 25/19 A2996 RMK A01 T02540188  RH  067%=      5-min Rain = 0
KBI1 200759Z 16008KT 25/19 A2996 RMK A01 T02540188  RH  067%=      5-min Rain = 0
KBI1 200800Z 17009KT 25/19 A2996 RMK A01 T02530189  RH  068%=      5-min Rain = 0
KBI1 200801Z 16008KT 25/19 A2996 RMK A01 T02530190  RH  068%=      5-min Rain = 0
KBI1 200802Z 16012KT 25/19 A2996 RMK A01 T02530190  RH  068%=      5-min Rain = 0
KBI1 200803Z 16011KT 25/19 A2996 RMK A01 T02540191  RH  068%=      5-min Rain = 0
KBI1 200804Z 16011KT 25/19 A2996 RMK A01 T02540192  RH  068%=      5-min Rain = 0
KBI1 200805Z 16013G18KT 26/19 A2996 RMK A01 T02550193  RH  069%=      5-min Rain = 0
KBI1 200806Z 16012KT 26/19 A2996 RMK A01 T02550193  RH  069%=      5-min Rain = 0
KBI1 200807Z 16012G17KT 26/19 A2996 RMK A01 T02560194  RH  069%=      5-min Rain = 0
KBI1 200808Z 16012KT 26/19 A2996 RMK A01 T02560194  RH  069%=      5-min Rain = 0
KBI1 200809Z 16013KT 26/19 A2996 RMK A01 T02560194  RH  069%=      5-min Rain = 0
KBI1 200810Z 16011KT 26/20 A2996 RMK A01 T02560195  RH  069%=      5-min Rain = 0
KBI1 200811Z 17012KT 26/20 A2996 RMK A01 T02560195  RH  069%=      5-min Rain = 0
KBI1 200812Z 16010KT 26/20 A2996 RMK A01 T02550195  RH  069%=      5-min Rain = 0
KBI1 200813Z 16012KT 26/20 A2996 RMK A01 T02550195  RH  070%=      5-min Rain = 0
KBI1 200814Z 16013KT 26/20 A2996 RMK A01 T02550196  RH  070%=      5-min Rain = 0
KBI1 200815Z 16012KT 26/20 A2996 RMK A01 T02550196  RH  070%=      5-min Rain = 0
KBI1 200816Z 16013KT 26/20 A2996 RMK A01 T02550196  RH  070%=      5-min Rain = 0
KBI1 200817Z 16013G18KT 26/20 A2996 RMK A01 T02560197  RH  070%=      5-min Rain = 0
KBI1 200818Z 17012KT 26/20 A2996 RMK A01 T02550197  RH  070%=      5-min Rain = 0
KBI1 200819Z 16013KT 26/20 A2996 RMK A01 T02560197  RH  070%=      5-min Rain = 0
KBI1 200820Z 16011KT 26/20 A2996 RMK A01 T02560198  RH  070%=      5-min Rain = 0
KBI1 200821Z 16012KT 26/20 A2996 RMK A01 T02550198  RH  070%=      5-min Rain = 0
KBI1 200822Z 16012G17KT 26/20 A2996 RMK A01 T02560198  RH  071%=      5-min Rain = 0
KBI1 200823Z 16013KT 26/20 A2996 RMK A01 T02550198  RH  071%=      5-min Rain = 0
KBI1 200824Z 16014G20KT 26/20 A2996 RMK A01 T02550198  RH  071%=      5-min Rain = 0
KBI1 200825Z 16013KT 26/20 A2996 RMK A01 T02550198  RH  071%=      5-min Rain = 0
KBI1 200826Z 16012KT 26/20 A2996 RMK A01 T02550198  RH  071%=      5-min Rain = 0
KBI1 200827Z 16012KT 26/20 A2996 RMK A01 T02560199  RH  071%=      5-min Rain = 0
KBI1 200828Z 16010KT 26/20 A2996 RMK A01 T02550199  RH  071%=      5-min Rain = 0
KBI1 200829Z 16011KT 26/20 A2996 RMK A01 T02550199  RH  071%=      5-min Rain = 0
KBI1 200830Z 16011KT 25/20 A2996 RMK A01 T02540199  RH  071%=      5-min Rain = 0
KBI1 200831Z 16012KT 25/20 A2996 RMK A01 T02540199  RH  071%=      5-min Rain = 0
KBI1 200832Z 16013KT 25/20 A2996 RMK A01 T02540199  RH  072%=      5-min Rain = 0
KBI1 200833Z 16014KT 26/20 A2996 RMK A01 T02550200  RH  072%=      5-min Rain = 0
KBI1 200834Z 16011KT 25/20 A2996 RMK A01 T02540199  RH  071%=      5-min Rain = 0
KBI1 200835Z 16011KT 25/20 A2996 RMK A01 T02540198  RH  071%=      5-min Rain = 0
KBI1 200836Z 16013KT 26/20 A2996 RMK A01 T02550199  RH  071%=      5-min Rain = 0
KBI1 200837Z 16014KT 26/20 A2996 RMK A01 T02550198  RH  071%=      5-min Rain = 0
KBI1 200838Z 16014KT 25/20 A2996 RMK A01 T02540198  RH  071%=      5-min Rain = 0
KBI1 200839Z 16010KT 26/20 A2996 RMK A01 T02550197  RH  071%=      5-min Rain = 0
KBI1 200840Z 16011KT 26/20 A2996 RMK A01 T02550198  RH  071%=      5-min Rain = 0
KBI1 200841Z 16011G17KT 25/20 A2996 RMK A01 T02540197  RH  071%=      5-min Rain = 0
KBI1 200842Z 16015KT 25/20 A2996 RMK A01 T02540196  RH  070%=      5-min Rain = 0
KBI1 200843Z 16015KT 25/20 A2996 RMK A01 T02540196  RH  070%=      5-min Rain = 0
KBI1 200844Z 16014KT 26/20 A2996 RMK A01 T02550196  RH  070%=      5-min Rain = 0
KBI1 200845Z 16012KT 26/20 A2996 RMK A01 T02550195  RH  069%=      5-min Rain = 0
KBI1 200846Z 16010KT 26/20 A2996 RMK A01 T02550195  RH  069%=      5-min Rain = 0
KBI1 200847Z 16015KT 26/20 A2996 RMK A01 T02550195  RH  069%=      5-min Rain = 0
KBI1 200848Z 16012KT 25/19 A2996 RMK A01 T02540194  RH  069%=      5-min Rain = 0
KBI1 200849Z 16015G20KT 26/19 A2996 RMK A01 T02550194  RH  069%=      5-min Rain = 0
KBI1 200850Z 16015KT 25/19 A2996 RMK A01 T02540193  RH  069%=      5-min Rain = 0
KBI1 200851Z 16014KT 26/19 A2996 RMK A01 T02550194  RH  069%=      5-min Rain = 0
KBI1 200852Z 16014KT 26/19 A2996 RMK A01 T02550193  RH  069%=      5-min Rain = 0
KBI1 200853Z 16011G16KT 26/19 A2996 RMK A01 T02550193  RH  069%=      5-min Rain = 0
KBI1 200854Z 17012KT 26/19 A2996 RMK A01 T02550193  RH  069%=      5-min Rain = 0
KBI1 200855Z 16012KT 25/19 A2996 RMK A01 T02540192  RH  069%=      5-min Rain = 0
KBI1 200856Z 17015KT 25/19 A2996 RMK A01 T02540192  RH  069%=      5-min Rain = 0
KBI1 200857Z 16013KT 25/19 A2996 RMK A01 T02530191  RH  069%=      5-min Rain = 0
KBI1 200858Z 16012KT 25/19 A2996 RMK A01 T02530191  RH  068%=      5-min Rain = 0
KBI1 200859Z 16016G23KT 25/19 A2996 RMK A01 T02530191  RH  068%=      5-min Rain = 0
KBI1 200900Z 16017G22KT 25/19 A2996 RMK A01 T02540190  RH  068%=      5-min Rain = 0
KBI1 200901Z 17014KT 26/19 A2996 RMK A01 T02550190  RH  067%=      5-min Rain = 0
KBI1 200902Z 16015KT 25/19 A2996 RMK A01 T02540190  RH  067%=      5-min Rain = 0
KBI1 200903Z 16013KT 25/19 A2996 RMK A01 T02540190  RH  067%=      5-min Rain = 0
KBI1 200904Z 16015KT 25/19 A2996 RMK A01 T02540189  RH  068%=      5-min Rain = 0
KBI1 200905Z 16012KT 25/19 A2996 RMK A01 T02540190  RH  068%=      5-min Rain = 0
KBI1 200906Z 16013KT 25/19 A2996 RMK A01 T02530190  RH  068%=      5-min Rain = 0
KBI1 200907Z 16013KT 25/19 A2996 RMK A01 T02520189  RH  068%=      5-min Rain = 0
KBI1 200908Z 16013KT 25/19 A2996 RMK A01 T02520189  RH  068%=      5-min Rain = 0
KBI1 200909Z 16012G18KT 25/19 A2996 RMK A01 T02520189  RH  068%=      5-min Rain = 0
KBI1 200910Z 16011KT 25/19 A2996 RMK A01 T02510190  RH  069%=      5-min Rain = 0
KBI1 200911Z 16010KT 25/19 A2996 RMK A01 T02510190  RH  069%=      5-min Rain = 0
KBI1 200912Z 16014KT 25/19 A2996 RMK A01 T02500190  RH  069%=      5-min Rain = 0
KBI1 200913Z 16014KT 25/19 A2996 RMK A01 T02500190  RH  069%=      5-min Rain = 0
KBI1 200914Z 16012KT 25/19 A2996 RMK A01 T02510191  RH  070%=      5-min Rain = 0
KBI1 200915Z 16012KT 25/19 A2996 RMK A01 T02500191  RH  070%=      5-min Rain = 0
KBI1 200916Z 17013KT 25/19 A2996 RMK A01 T02500192  RH  070%=      5-min Rain = 0
KBI1 200917Z 16011KT 25/19 A2996 RMK A01 T02490191  RH  070%=      5-min Rain = 0
KBI1 200918Z 17012KT 25/19 A2996 RMK A01 T02490191  RH  070%=      5-min Rain = 0
KBI1 200919Z 17013KT 25/19 A2996 RMK A01 T02490191  RH  070%=      5-min Rain = 0
KBI1 200920Z 16013KT 25/19 A2996 RMK A01 T02490191  RH  070%=      5-min Rain = 0
KBI1 200921Z 16012KT 25/19 A2996 RMK A01 T02490191  RH  070%=      5-min Rain = 0
KBI1 200922Z 17012KT 25/19 A2996 RMK A01 T02490191  RH  070%=      5-min Rain = 0
KBI1 200923Z 16011KT 25/19 A2996 RMK A01 T02490191  RH  070%=      5-min Rain = 0
KBI1 200924Z 16012KT 25/19 A2996 RMK A01 T02480190  RH  070%=      5-min Rain = 0
KBI1 200925Z 17013KT 25/19 A2996 RMK A01 T02480190  RH  070%=      5-min Rain = 0
KBI1 200926Z 16012KT 25/19 A2996 RMK A01 T02480190  RH  070%=      5-min Rain = 0
KBI1 200927Z 17011KT 25/19 A2996 RMK A01 T02480190  RH  070%=      5-min Rain = 0
KBI1 200928Z 16011KT 25/19 A2996 RMK A01 T02480190  RH  070%=      5-min Rain = 0
KBI1 200929Z 16011G16KT 25/19 A2996 RMK A01 T02470190  RH  070%=      5-min Rain = 0
KBI1 200930Z 16013KT 25/19 A2996 RMK A01 T02470190  RH  071%=      5-min Rain = 0
KBI1 200931Z 16013KT 25/19 A2996 RMK A01 T02470190  RH  071%=      5-min Rain = 0
KBI1 200932Z 16011KT 25/19 A2996 RMK A01 T02470190  RH  071%=      5-min Rain = 0
KBI1 200933Z 16012KT 25/19 A2996 RMK A01 T02470190  RH  071%=      5-min Rain = 0
KBI1 200934Z 16013G19KT 25/19 A2996 RMK A01 T02470190  RH  071%=      5-min Rain = 0
KBI1 200935Z 16013KT 25/19 A2996 RMK A01 T02460190  RH  071%=      5-min Rain = 0
KBI1 200936Z 16012KT 25/19 A2996 RMK A01 T02460190  RH  071%=      5-min Rain = 0
KBI1 200937Z 16011KT 25/19 A2996 RMK A01 T02460190  RH  071%=      5-min Rain = 0
KBI1 200938Z 16013KT 25/19 A2996 RMK A01 T02460190  RH  071%=      5-min Rain = 0
KBI1 200939Z 16010KT 25/19 A2996 RMK A01 T02460191  RH  071%=      5-min Rain = 0
KBI1 200940Z 16010KT 25/19 A2996 RMK A01 T02460191  RH  071%=      5-min Rain = 0
KBI1 200941Z 16012KT 25/19 A2996 RMK A01 T02450190  RH  071%=      5-min Rain = 0
KBI1 200942Z 16011KT 25/19 A2996 RMK A01 T02450190  RH  071%=      5-min Rain = 0
KBI1 200943Z 16010G15KT 25/19 A2996 RMK A01 T02450190  RH  071%=      5-min Rain = 0
KBI1 200944Z 16013KT 25/19 A2996 RMK A01 T02450190  RH  071%=      5-min Rain = 0
KBI1 200945Z 16012KT 25/19 A2996 RMK A01 T02450190  RH  071%=      5-min Rain = 0
KBI1 200946Z 16010KT 25/19 A2996 RMK A01 T02450189  RH  071%=      5-min Rain = 0
KBI1 200947Z 16011KT 25/19 A2996 RMK A01 T02450189  RH  071%=      5-min Rain = 0
KBI1 200948Z 16012KT 25/19 A2996 RMK A01 T02450189  RH  071%=      5-min Rain = 0
KBI1 200949Z 16010KT 25/19 A2996 RMK A01 T02450189  RH  071%=      5-min Rain = 0
KBI1 200950Z 16010KT 25/19 A2996 RMK A01 T02450189  RH  071%=      5-min Rain = 0
KBI1 200951Z 16009KT 25/19 A2996 RMK A01 T02450189  RH  071%=      5-min Rain = 0
KBI1 200952Z 16012KT 24/19 A2996 RMK A01 T02440189  RH  071%=      5-min Rain = 0
KBI1 200953Z 16012KT 24/19 A2996 RMK A01 T02440189  RH  071%=      5-min Rain = 0
KBI1 200954Z 16011KT 24/19 A2996 RMK A01 T02440189  RH  071%=      5-min Rain = 0
KBI1 200955Z 16008KT 24/19 A2996 RMK A01 T02440189  RH  071%=      5-min Rain = 0
KBI1 200956Z 16010KT 24/19 A2996 RMK A01 T02430188  RH  071%=      5-min Rain = 0
KBI1 200957Z 16009KT 24/19 A2996 RMK A01 T02430188  RH  072%=      5-min Rain = 0
KBI1 200958Z 17011KT 24/19 A2996 RMK A01 T02430189  RH  072%=      5-min Rain = 0
KBI1 200959Z 17011KT 24/19 A2996 RMK A01 T02430188  RH  071%=      5-min Rain = 0
KBI1 201000Z 16013KT 24/19 A2996 RMK A01 T02430188  RH  071%=      5-min Rain = 0
KBI1 201001Z 17011KT 24/19 A2996 RMK A01 T02430187  RH  071%=      5-min Rain = 0
KBI1 201002Z 17012KT 24/19 A2996 RMK A01 T02420187  RH  071%=      5-min Rain = 0
KBI1 201003Z 16010KT 24/19 A2996 RMK A01 T02430188  RH  071%=      5-min Rain = 0
KBI1 201004Z 16011KT 24/19 A2996 RMK A01 T02420187  RH  071%=      5-min Rain = 0
KBI1 201005Z 17009G14KT 24/19 A2996 RMK A01 T02420187  RH  071%=      5-min Rain = 0
KBI1 201006Z 17011G17KT 24/19 A2996 RMK A01 T02420187  RH  071%=      5-min Rain = 0
KBI1 201007Z 17008KT 24/19 A2996 RMK A01 T02420187  RH  071%=      5-min Rain = 0
KBI1 201008Z 17012G17KT 24/19 A2996 RMK A01 T02420187  RH  071%=      5-min Rain = 0
KBI1 201009Z 17012KT 24/19 A2996 RMK A01 T02420186  RH  071%=      5-min Rain = 0
KBI1 201010Z 16008KT 24/19 A2996 RMK A01 T02420186  RH  071%=      5-min Rain = 0
KBI1 201011Z 16009G14KT 24/19 A2996 RMK A01 T02420186  RH  071%=      5-min Rain = 0
KBI1 201012Z 17011G16KT 24/19 A2996 RMK A01 T02410186  RH  071%=      5-min Rain = 0
KBI1 201013Z 17013KT 24/19 A2996 RMK A01 T02410186  RH  071%=      5-min Rain = 0
KBI1 201014Z 16009KT 24/19 A2996 RMK A01 T02420186  RH  071%=      5-min Rain = 0
KBI1 201015Z 16010KT 24/19 A2996 RMK A01 T02420186  RH  071%=      5-min Rain = 0
KBI1 201016Z 16009KT 24/19 A2996 RMK A01 T02410186  RH  071%=      5-min Rain = 0
KBI1 201017Z 16008KT 24/19 A2996 RMK A01 T02410186  RH  071%=      5-min Rain = 0
KBI1 201018Z 16010G15KT 24/19 A2996 RMK A01 T02410186  RH  072%=      5-min Rain = 0
KBI1 201019Z 16008KT 24/19 A2996 RMK A01 T02400186  RH  072%=      5-min Rain = 0
KBI1 201020Z 16008KT 24/19 A2996 RMK A01 T02400186  RH  072%=      5-min Rain = 0
KBI1 201021Z 16009KT 24/19 A2996 RMK A01 T02400186  RH  072%=      5-min Rain = 0
KBI1 201022Z 16009KT 24/19 A2996 RMK A01 T02390186  RH  072%=      5-min Rain = 0
KBI1 201023Z 16009KT 24/19 A2996 RMK A01 T02390186  RH  072%=      5-min Rain = 0
KBI1 201024Z 16008KT 24/19 A2996 RMK A01 T02390187  RH  072%=      5-min Rain = 0
KBI1 201025Z 15010KT 24/19 A2996 RMK A01 T02390186  RH  072%=      5-min Rain = 0
KBI1 201026Z 16009KT 24/19 A2996 RMK A01 T02380186  RH  073%=      5-min Rain = 0
KBI1 201027Z 16009KT 24/19 A2996 RMK A01 T02380186  RH  073%=      5-min Rain = 0
KBI1 201028Z 15008KT 24/19 A2996 RMK A01 T02380187  RH  073%=      5-min Rain = 0
KBI1 201029Z 15008KT 24/19 A2996 RMK A01 T02380186  RH  073%=      5-min Rain = 0
KBI1 201030Z 16007KT 24/19 A2996 RMK A01 T02370187  RH  073%=      5-min Rain = 0
KBI1 201031Z 16008KT 24/19 A2996 RMK A01 T02370187  RH  073%=      5-min Rain = 0
KBI1 201032Z 16008KT 24/19 A2996 RMK A01 T02370187  RH  073%=      5-min Rain = 0
KBI1 201033Z 16010KT 24/19 A2996 RMK A01 T02370187  RH  073%=      5-min Rain = 0
KBI1 201034Z 15008KT 24/19 A2996 RMK A01 T02370187  RH  074%=      5-min Rain = 0
KBI1 201035Z 16007KT 24/19 A2996 RMK A01 T02370187  RH  074%=      5-min Rain = 0
KBI1 201036Z 16010KT 24/19 A2996 RMK A01 T02370187  RH  074%=      5-min Rain = 0
KBI1 201037Z 16009KT 24/19 A2996 RMK A01 T02360187  RH  074%=      5-min Rain = 0
KBI1 201038Z 16009KT 24/19 A2996 RMK A01 T02360187  RH  074%=      5-min Rain = 0
KBI1 201039Z 16008KT 24/19 A2996 RMK A01 T02360187  RH  074%=      5-min Rain = 0
KBI1 201040Z 16009KT 24/19 A2996 RMK A01 T02360187  RH  074%=      5-min Rain = 0
KBI1 201041Z 16009KT 24/19 A2996 RMK A01 T02360187  RH  074%=      5-min Rain = 0
KBI1 201042Z 16009KT 24/19 A2996 RMK A01 T02360187  RH  074%=      5-min Rain = 0
KBI1 201043Z 16009KT 24/19 A2996 RMK A01 T02360187  RH  074%=      5-min Rain = 0
KBI1 201044Z 16008KT 24/19 A2996 RMK A01 T02360187  RH  074%=      5-min Rain = 0
KBI1 201045Z 16009KT 24/19 A2996 RMK A01 T02350187  RH  074%=      5-min Rain = 0
KBI1 201046Z 16009KT 24/19 A2996 RMK A01 T02350187  RH  074%=      5-min Rain = 0
KBI1 201047Z 16008KT 24/19 A2996 RMK A01 T02350187  RH  074%=      5-min Rain = 0
KBI1 201048Z 16009KT 24/19 A2996 RMK A01 T02350187  RH  075%=      5-min Rain = 0
KBI1 201049Z 16008KT 23/19 A2996 RMK A01 T02340187  RH  075%=      5-min Rain = 0
KBI1 201050Z 16009KT 23/19 A2996 RMK A01 T02340186  RH  075%=      5-min Rain = 0
KBI1 201051Z 17009KT 23/19 A2996 RMK A01 T02340187  RH  075%=      5-min Rain = 0
KBI1 201052Z 16008KT 23/19 A2996 RMK A01 T02340186  RH  075%=      5-min Rain = 0
KBI1 201053Z 16009KT 23/19 A2996 RMK A01 T02340186  RH  075%=      5-min Rain = 0
KBI1 201054Z 15008G13KT 23/19 A2996 RMK A01 T02340187  RH  075%=      5-min Rain = 0
KBI1 201055Z 16009KT 23/19 A2996 RMK A01 T02340187  RH  075%=      5-min Rain = 0
KBI1 201056Z 16011KT 23/19 A2996 RMK A01 T02340187  RH  075%=      5-min Rain = 0
KBI1 201057Z 16009KT 23/19 A2996 RMK A01 T02340187  RH  075%=      5-min Rain = 0
KBI1 201058Z 16007KT 23/19 A2996 RMK A01 T02340187  RH  074%=      5-min Rain = 0
KBI1 201059Z 16010KT 23/19 A2996 RMK A01 T02340186  RH  075%=      5-min Rain = 0
KBI1 201100Z 16008KT 23/19 A2996 RMK A01 T02340187  RH  075%=      5-min Rain = 0
KBI1 201101Z 16010KT 23/19 A2996 RMK A01 T02330187  RH  075%=      5-min Rain = 0
KBI1 201102Z 16009KT 23/19 A2996 RMK A01 T02330187  RH  075%=      5-min Rain = 0
KBI1 201103Z 17009KT 23/19 A2996 RMK A01 T02330186  RH  075%=      5-min Rain = 0
KBI1 201104Z 16010KT 23/19 A2996 RMK A01 T02330186  RH  075%=      5-min Rain = 0
KBI1 201105Z 16008KT 23/19 A2996 RMK A01 T02330187  RH  075%=      5-min Rain = 0
KBI1 201106Z 16009KT 23/19 A2996 RMK A01 T02330187  RH  075%=      5-min Rain = 0
KBI1 201107Z 16008KT 23/19 A2996 RMK A01 T02320186  RH  075%=      5-min Rain = 0
KBI1 201108Z 16010KT 23/19 A2996 RMK A01 T02320186  RH  075%=      5-min Rain = 0
KBI1 201109Z 16010KT 23/19 A2996 RMK A01 T02320186  RH  075%=      5-min Rain = 0
KBI1 201110Z 17010KT 23/19 A2996 RMK A01 T02320186  RH  075%=      5-min Rain = 0
KBI1 201111Z 16011KT 23/19 A2996 RMK A01 T02320186  RH  075%=      5-min Rain = 0
KBI1 201112Z 17011KT 23/19 A2996 RMK A01 T02320186  RH  076%=      5-min Rain = 0
KBI1 201113Z 16013KT 23/19 A2996 RMK A01 T02320186  RH  076%=      5-min Rain = 0
KBI1 201114Z 16010KT 23/19 A2996 RMK A01 T02310186  RH  076%=      5-min Rain = 0
KBI1 201115Z 16011KT 23/19 A2996 RMK A01 T02310186  RH  076%=      5-min Rain = 0
KBI1 201116Z 17009KT 23/19 A2996 RMK A01 T02320186  RH  076%=      5-min Rain = 0
KBI1 201117Z 17009KT 23/19 A2996 RMK A01 T02310186  RH  076%=      5-min Rain = 0
KBI1 201118Z 16010KT 23/19 A2996 RMK A01 T02310186  RH  076%=      5-min Rain = 0
KBI1 201119Z 17012KT 23/19 A2996 RMK A01 T02310186  RH  076%=      5-min Rain = 0
KBI1 201120Z 17011KT 23/19 A2996 RMK A01 T02310186  RH  076%=      5-min Rain = 0
KBI1 201121Z 17011KT 23/19 A2996 RMK A01 T02310186  RH  076%=      5-min Rain = 0
KBI1 201122Z 16011KT 23/19 A2996 RMK A01 T02310186  RH  076%=      5-min Rain = 0
KBI1 201123Z 17011KT 23/19 A2996 RMK A01 T02300186  RH  076%=      5-min Rain = 0
KBI1 201124Z 17012KT 23/19 A2996 RMK A01 T02310187  RH  076%=      5-min Rain = 0
KBI1 201125Z 16010KT 23/19 A2996 RMK A01 T02300187  RH  076%=      5-min Rain = 0
KBI1 201126Z 17011KT 23/19 A2996 RMK A01 T02300186  RH  076%=      5-min Rain = 0
KBI1 201127Z 17011G16KT 23/19 A2996 RMK A01 T02300186  RH  076%=      5-min Rain = 0
KBI1 201128Z 17012KT 23/19 A2996 RMK A01 T02300186  RH  077%=      5-min Rain = 0
KBI1 201129Z 17012KT 23/19 A2996 RMK A01 T02300187  RH  077%=      5-min Rain = 0
KBI1 201130Z 17011KT 23/19 A2996 RMK A01 T02300186  RH  077%=      5-min Rain = 0
KBI1 201131Z 17012KT 23/19 A2996 RMK A01 T02300187  RH  077%=      5-min Rain = 0
KBI1 201132Z 17010KT 23/19 A2996 RMK A01 T02290187  RH  077%=      5-min Rain = 0
KBI1 201133Z 17010KT 23/19 A2996 RMK A01 T02290186  RH  077%=      5-min Rain = 0
KBI1 201134Z 17010KT 23/19 A2996 RMK A01 T02290186  RH  077%=      5-min Rain = 0
KBI1 201135Z 17009KT 23/19 A2996 RMK A01 T02280186  RH  077%=      5-min Rain = 0
KBI1 201136Z 17011KT 23/19 A2996 RMK A01 T02280186  RH  077%=      5-min Rain = 0
KBI1 201137Z 16011KT 23/19 A2996 RMK A01 T02280187  RH  077%=      5-min Rain = 0
KBI1 201138Z 16011KT 23/19 A2996 RMK A01 T02280186  RH  077%=      5-min Rain = 0
KBI1 201139Z 16010KT 23/19 A2996 RMK A01 T02280186  RH  077%=      5-min Rain = 0
KBI1 201140Z 17011KT 23/19 A2996 RMK A01 T02280186  RH  077%=      5-min Rain = 0
KBI1 201141Z 16009KT 23/19 A2996 RMK A01 T02280186  RH  078%=      5-min Rain = 0
KBI1 201142Z 17012KT 23/19 A2996 RMK A01 T02270187  RH  078%=      5-min Rain = 0
KBI1 201143Z 16011KT 23/19 A2996 RMK A01 T02270187  RH  078%=      5-min Rain = 0
KBI1 201144Z 16012KT 23/19 A2996 RMK A01 T02270186  RH  078%=      5-min Rain = 0
KBI1 201145Z 16012KT 23/19 A2996 RMK A01 T02270187  RH  078%=      5-min Rain = 0
KBI1 201146Z 16010KT 23/19 A2996 RMK A01 T02270186  RH  078%=      5-min Rain = 0
KBI1 201147Z 16009KT 23/19 A2996 RMK A01 T02270187  RH  078%=      5-min Rain = 0
KBI1 201148Z 17010KT 23/19 A2996 RMK A01 T02270187  RH  078%=      5-min Rain = 0
KBI1 201149Z 17012KT 23/19 A2996 RMK A01 T02260187  RH  078%=      5-min Rain = 0
KBI1 201150Z 16012KT 23/19 A2996 RMK A01 T02260187  RH  078%=      5-min Rain = 0
KBI1 201151Z 17011KT 23/19 A2996 RMK A01 T02260187  RH  078%=      5-min Rain = 0
KBI1 201152Z 17009KT 23/19 A2996 RMK A01 T02260186  RH  078%=      5-min Rain = 0
KBI1 201153Z 17014KT 23/19 A2996 RMK A01 T02260187  RH  078%=      5-min Rain = 0
KBI1 201154Z 17010KT 23/19 A2996 RMK A01 T02260187  RH  078%=      5-min Rain = 0
KBI1 201155Z 17009KT 23/19 A2996 RMK A01 T02260187  RH  078%=      5-min Rain = 0
KBI1 201156Z 16012KT 23/19 A2996 RMK A01 T02260187  RH  079%=      5-min Rain = 0
KBI1 201157Z 17010KT 23/19 A2996 RMK A01 T02260187  RH  079%=      5-min Rain = 0
KBI1 201158Z 16009KT 23/19 A2996 RMK A01 T02260187  RH  079%=      5-min Rain = 0
KBI1 201159Z 16010KT 23/19 A2996 RMK A01 T02250187  RH  079%=      5-min Rain = 0
KBI1 201200Z 16009KT 23/19 A2996 RMK A01 T02250187  RH  079%=      5-min Rain = 0
KBI1 201201Z 16009KT 23/19 A2996 RMK A01 T02250187  RH  079%=      5-min Rain = 0
KBI1 201202Z 17011KT 23/19 A2996 RMK A01 T02250187  RH  079%=      5-min Rain = 0
KBI1 201203Z 17012KT 23/19 A2996 RMK A01 T02250187  RH  079%=      5-min Rain = 0
KBI1 201204Z 17009KT 23/19 A2996 RMK A01 T02250187  RH  079%=      5-min Rain = 0
KBI1 201205Z 17010KT 23/19 A2996 RMK A01 T02250187  RH  079%=      5-min Rain = 0
KBI1 201206Z 16012KT 23/19 A2996 RMK A01 T02250187  RH  079%=      5-min Rain = 0
KBI1 201207Z 16009KT 23/19 A2996 RMK A01 T02250187  RH  079%=      5-min Rain = 0
KBI1 201208Z 17010KT 23/19 A2996 RMK A01 T02250187  RH  079%=      5-min Rain = 0
KBI1 201209Z 16010KT 23/19 A2996 RMK A01 T02250187  RH  079%=      5-min Rain = 0
KBI1 201210Z 16008KT 23/19 A2996 RMK A01 T02250187  RH  079%=      5-min Rain = 0
KBI1 201211Z 17011G17KT 22/19 A2996 RMK A01 T02240187  RH  079%=      5-min Rain = 0
KBI1 201212Z 16011KT 22/19 A2996 RMK A01 T02240187  RH  079%=      5-min Rain = 0
KBI1 201213Z 16010KT 22/19 A2996 RMK A01 T02240187  RH  079%=      5-min Rain = 0
KBI1 201214Z 16011KT 23/19 A2996 RMK A01 T02250187  RH  079%=      5-min Rain = 0
KBI1 201215Z 17011KT 23/19 A2996 RMK A01 T02250187  RH  079%=      5-min Rain = 0
KBI1 201216Z 16010KT 23/19 A2996 RMK A01 T02250187  RH  079%=      5-min Rain = 0
KBI1 201217Z 16012KT 23/19 A2996 RMK A01 T02250187  RH  079%=      5-min Rain = 0
KBI1 201218Z 17014KT 23/19 A2996 RMK A01 T02250187  RH  079%=      5-min Rain = 0
KBI1 201219Z 17013KT 23/19 A2996 RMK A01 T02250187  RH  079%=      5-min Rain = 0
KBI1 201220Z 17012KT 23/19 A2996 RMK A01 T02260188  RH  079%=      5-min Rain = 0
KBI1 201221Z 17012KT 23/19 A2996 RMK A01 T02250187  RH  079%=      5-min Rain = 0
KBI1 201222Z 16010G15KT 23/19 A2996 RMK A01 T02250187  RH  079%=      5-min Rain = 0
KBI1 201223Z 16009KT 23/19 A2996 RMK A01 T02260187  RH  079%=      5-min Rain = 0
KBI1 201224Z 16011KT 23/19 A2996 RMK A01 T02260188  RH  079%=      5-min Rain = 0
KBI1 201225Z 17010KT 23/19 A2996 RMK A01 T02260188  RH  079%=      5-min Rain = 0
KBI1 201226Z 17009KT 23/19 A2996 RMK A01 T02260188  RH  079%=      5-min Rain = 0
KBI1 201227Z 17010KT 23/19 A2996 RMK A01 T02260188  RH  079%=      5-min Rain = 0
KBI1 201228Z 17011KT 23/19 A2996 RMK A01 T02260188  RH  079%=      5-min Rain = 0
KBI1 201229Z 17011KT 23/19 A2996 RMK A01 T02260188  RH  079%=      5-min Rain = 0
KBI1 201230Z 17009KT 23/19 A2997 RMK A01 T02250187  RH  079%=      5-min Rain = 0
KBI1 201231Z 17008KT 23/19 A2997 RMK A01 T02260188  RH  079%=      5-min Rain = 0
KBI1 201232Z 17010KT 23/19 A2997 RMK A01 T02260188  RH  079%=      5-min Rain = 0
KBI1 201233Z 17011KT 23/19 A2997 RMK A01 T02260188  RH  079%=      5-min Rain = 0
KBI1 201234Z 17012KT 23/19 A2997 RMK A01 T02260188  RH  079%=      5-min Rain = 0
KBI1 201235Z 17010KT 23/19 A2997 RMK A01 T02260188  RH  079%=      5-min Rain = 0
KBI1 201236Z 17009KT 23/19 A2997 RMK A01 T02260188  RH  079%=      5-min Rain = 0
KBI1 201237Z 17009KT 23/19 A2997 RMK A01 T02260188  RH  079%=      5-min Rain = 0
KBI1 201238Z 17012KT 23/19 A2997 RMK A01 T02260188  RH  079%=      5-min Rain = 0
KBI1 201239Z 17010KT 23/19 A2997 RMK A01 T02260188  RH  079%=      5-min Rain = 0
KBI1 201240Z 17009KT 23/19 A2997 RMK A01 T02270188  RH  079%=      5-min Rain = 0
KBI1 201241Z 17010KT 23/19 A2997 RMK A01 T02270188  RH  079%=      5-min Rain = 0
KBI1 201242Z 17009KT 23/19 A2997 RMK A01 T02270188  RH  079%=      5-min Rain = 0
KBI1 201243Z 17013KT 23/19 A2997 RMK A01 T02270189  RH  079%=      5-min Rain = 0
KBI1 201244Z 17012KT 23/19 A2997 RMK A01 T02280189  RH  079%=      5-min Rain = 0
KBI1 201245Z 17011KT 23/19 A2997 RMK A01 T02270188  RH  079%=      5-min Rain = 0
KBI1 201246Z 17012KT 23/19 A2997 RMK A01 T02280189  RH  079%=      5-min Rain = 0
KBI1 201247Z 17010KT 23/19 A2997 RMK A01 T02280189  RH  078%=      5-min Rain = 0
KBI1 201248Z 17010KT 23/19 A2997 RMK A01 T02280189  RH  078%=      5-min Rain = 0
KBI1 201249Z 17010KT 23/19 A2997 RMK A01 T02290189  RH  078%=      5-min Rain = 0
KBI1 201250Z 17010KT 23/19 A2997 RMK A01 T02280189  RH  078%=      5-min Rain = 0
KBI1 201251Z 17012KT 23/19 A2997 RMK A01 T02290190  RH  078%=      5-min Rain = 0
KBI1 201252Z 16012KT 23/19 A2997 RMK A01 T02290189  RH  078%=      5-min Rain = 0
KBI1 201253Z 17014KT 23/19 A2997 RMK A01 T02290189  RH  078%=      5-min Rain = 0
KBI1 201254Z 17013KT 23/19 A2997 RMK A01 T02290190  RH  078%=      5-min Rain = 0
KBI1 201255Z 17012KT 23/19 A2997 RMK A01 T02290189  RH  078%=      5-min Rain = 0
KBI1 201256Z 17013KT 23/19 A2997 RMK A01 T02300189  RH  078%=      5-min Rain = 0
KBI1 201257Z 17014KT 23/19 A2997 RMK A01 T02300190  RH  078%=      5-min Rain = 0
KBI1 201258Z 17013KT 23/19 A2997 RMK A01 T02300190  RH  078%=      5-min Rain = 0
KBI1 201259Z 17013KT 23/19 A2997 RMK A01 T02300190  RH  078%=      5-min Rain = 0
KBI1 201300Z 17015KT 23/19 A2997 RMK A01 T02300190  RH  078%=      5-min Rain = 0
KBI1 201301Z 16012G17KT 23/19 A2997 RMK A01 T02300190  RH  078%=      5-min Rain = 0
KBI1 201302Z 16011G16KT 23/19 A2997 RMK A01 T02310190  RH  078%=      5-min Rain = 0
KBI1 201303Z 17012KT 23/19 A2997 RMK A01 T02310190  RH  078%=      5-min Rain = 0
KBI1 201304Z 16011KT 23/19 A2997 RMK A01 T02310190  RH  078%=      5-min Rain = 0
KBI1 201305Z 17015KT 23/19 A2997 RMK A01 T02310190  RH  078%=      5-min Rain = 0
KBI1 201306Z 17011KT 23/19 A2997 RMK A01 T02310190  RH  078%=      5-min Rain = 0
KBI1 201307Z 17017KT 23/19 A2997 RMK A01 T02320190  RH  078%=      5-min Rain = 0
KBI1 201308Z 18014KT 23/19 A2997 RMK A01 T02320190  RH  077%=      5-min Rain = 0
KBI1 201309Z 17014KT 23/19 A2997 RMK A01 T02320190  RH  077%=      5-min Rain = 0
KBI1 201310Z 17013KT 23/19 A2997 RMK A01 T02320190  RH  077%=      5-min Rain = 0
KBI1 201311Z 17014KT 23/19 A2997 RMK A01 T02320191  RH  077%=      5-min Rain = 0
KBI1 201312Z 17015KT 23/19 A2997 RMK A01 T02330191  RH  077%=      5-min Rain = 0
KBI1 201313Z 16013KT 23/19 A2997 RMK A01 T02330191  RH  077%=      5-min Rain = 0
KBI1 201314Z 18014KT 23/19 A2998 RMK A01 T02320190  RH  077%=      5-min Rain = 0
KBI1 201315Z 17010KT 23/19 A2998 RMK A01 T02330192  RH  077%=      5-min Rain = 0
KBI1 201316Z 17012KT 23/19 A2998 RMK A01 T02340192  RH  077%=      5-min Rain = 0
KBI1 201317Z 17011G16KT 23/19 A2998 RMK A01 T02340192  RH  077%=      5-min Rain = 0
KBI1 201318Z 16012KT 24/19 A2998 RMK A01 T02350192  RH  077%=      5-min Rain = 0
KBI1 201319Z 16012KT 24/19 A2998 RMK A01 T02350192  RH  077%=      5-min Rain = 0
KBI1 201320Z 16014G19KT 24/19 A2998 RMK A01 T02350192  RH  077%=      5-min Rain = 0
KBI1 201321Z 17011G16KT 24/19 A2998 RMK A01 T02350192  RH  077%=      5-min Rain = 0
KBI1 201322Z 17010KT 24/19 A2998 RMK A01 T02360193  RH  077%=      5-min Rain = 0
KBI1 201323Z 17015KT 24/19 A2998 RMK A01 T02360192  RH  076%=      5-min Rain = 0
KBI1 201324Z 17013KT 24/19 A2998 RMK A01 T02360192  RH  076%=      5-min Rain = 0
KBI1 201325Z 18015G21KT 24/19 A2998 RMK A01 T02360193  RH  076%=      5-min Rain = 0
KBI1 201326Z 18012KT 24/19 A2998 RMK A01 T02360193  RH  077%=      5-min Rain = 0
KBI1 201327Z 18013KT 24/19 A2998 RMK A01 T02370193  RH  076%=      5-min Rain = 0
KBI1 201328Z 17016G22KT 24/19 A2998 RMK A01 T02370193  RH  076%=      5-min Rain = 0
KBI1 201329Z 17016KT 24/19 A2998 RMK A01 T02370193  RH  076%=      5-min Rain = 0
KBI1 201330Z 18016G23KT 24/19 A2998 RMK A01 T02370193  RH  076%=      5-min Rain = 0
KBI1 201331Z 17018KT 24/19 A2998 RMK A01 T02370193  RH  076%=      5-min Rain = 0
KBI1 201332Z 18017KT 24/19 A2998 RMK A01 T02370192  RH  076%=      5-min Rain = 0
KBI1 201333Z 18017G24KT 24/19 A2998 RMK A01 T02370193  RH  076%=      5-min Rain = 0
KBI1 201334Z 17015G20KT 24/19 A2998 RMK A01 T02370193  RH  076%=      5-min Rain = 0
KBI1 201335Z 16016KT 24/19 A2998 RMK A01 T02370193  RH  077%=      5-min Rain = 0
KBI1 201336Z 18013G18KT 24/19 A2998 RMK A01 T02380193  RH  076%=      5-min Rain = 0
KBI1 201337Z 18013G18KT 24/19 A2998 RMK A01 T02380194  RH  076%=      5-min Rain = 0
KBI1 201338Z 17016KT 24/19 A2998 RMK A01 T02390194  RH  076%=      5-min Rain = 0
KBI1 201339Z 16016KT 24/19 A2998 RMK A01 T02390193  RH  076%=      5-min Rain = 0
KBI1 201340Z 17015KT 24/19 A2998 RMK A01 T02380193  RH  076%=      5-min Rain = 0
KBI1 201341Z 17017G22KT 24/19 A2998 RMK A01 T02390193  RH  076%=      5-min Rain = 0
KBI1 201342Z 18017KT 24/19 A2998 RMK A01 T02390194  RH  076%=      5-min Rain = 0
KBI1 201343Z 18016KT 24/19 A2998 RMK A01 T02390193  RH  076%=      5-min Rain = 0
KBI1 201344Z 17016KT 24/19 A2998 RMK A01 T02390194  RH  076%=      5-min Rain = 0
KBI1 201345Z 17016G21KT 24/19 A2998 RMK A01 T02400194  RH  075%=      5-min Rain = 0
KBI1 201346Z 17019KT 24/19 A2998 RMK A01 T02400193  RH  075%=      5-min Rain = 0
KBI1 201347Z 18018KT 24/19 A2998 RMK A01 T02400194  RH  075%=      5-min Rain = 0
KBI1 201348Z 17014G20KT 24/19 A2999 RMK A01 T02400194  RH  076%=      5-min Rain = 0
KBI1 201349Z 17014KT 24/20 A2999 RMK A01 T02410195  RH  075%=      5-min Rain = 0
KBI1 201350Z 18017KT 24/19 A2999 RMK A01 T02410194  RH  075%=      5-min Rain = 0
KBI1 201351Z 18015KT 24/19 A2999 RMK A01 T02420194  RH  075%=      5-min Rain = 0
KBI1 201352Z 17014KT 24/19 A2999 RMK A01 T02420194  RH  075%=      5-min Rain = 0
KBI1 201353Z 17013KT 24/20 A2999 RMK A01 T02430195  RH  075%=      5-min Rain = 0
KBI1 201354Z 17018KT 24/20 A2999 RMK A01 T02430195  RH  074%=      5-min Rain = 0
KBI1 201355Z 18017KT 24/20 A2999 RMK A01 T02440195  RH  074%=      5-min Rain = 0
KBI1 201356Z 18015KT 24/20 A2999 RMK A01 T02430195  RH  074%=      5-min Rain = 0
KBI1 201357Z 17015KT 24/20 A2999 RMK A01 T02430195  RH  074%=      5-min Rain = 0
KBI1 201358Z 17014KT 24/20 A2999 RMK A01 T02440195  RH  074%=      5-min Rain = 0
KBI1 201359Z 17013KT 24/20 A2999 RMK A01 T02440195  RH  074%=      5-min Rain = 0
KBI1 201400Z 17014KT 25/20 A2999 RMK A01 T02450196  RH  074%=      5-min Rain = 0
KBI1 201401Z 17013KT 25/20 A2999 RMK A01 T02460196  RH  074%=      5-min Rain = 0
KBI1 201402Z 17016KT 25/20 A2999 RMK A01 T02480196  RH  073%=      5-min Rain = 0
KBI1 201403Z 17016KT 25/20 A2999 RMK A01 T02480196  RH  073%=      5-min Rain = 0
KBI1 201404Z 18016KT 25/20 A2999 RMK A01 T02460195  RH  073%=      5-min Rain = 0
KBI1 201405Z 18014KT 25/20 A2999 RMK A01 T02460196  RH  074%=      5-min Rain = 0
KBI1 201406Z 18016G21KT 25/20 A2999 RMK A01 T02460196  RH  074%=      5-min Rain = 0
KBI1 201407Z 18015KT 25/20 A2999 RMK A01 T02470196  RH  073%=      5-min Rain = 0
KBI1 201408Z 18015KT 25/20 A2999 RMK A01 T02480196  RH  073%=      5-min Rain = 0
KBI1 201409Z 19016KT 25/20 A2999 RMK A01 T02480196  RH  073%=      5-min Rain = 0
KBI1 201410Z 19017KT 25/20 A2999 RMK A01 T02480196  RH  073%=      5-min Rain = 0
KBI1 201411Z 19016KT 25/20 A2999 RMK A01 T02480196  RH  073%=      5-min Rain = 0
KBI1 201412Z 18015KT 25/20 A2999 RMK A01 T02480196  RH  073%=      5-min Rain = 0
KBI1 201413Z 18017KT 25/20 A2999 RMK A01 T02490196  RH  073%=      5-min Rain = 0
KBI1 201414Z 17017KT 25/20 A2999 RMK A01 T02490196  RH  072%=      5-min Rain = 0
KBI1 201415Z 18014KT 25/20 A2999 RMK A01 T02500197  RH  073%=      5-min Rain = 0
KBI1 201416Z 18015G20KT 25/20 A2999 RMK A01 T02520198  RH  072%=      5-min Rain = 0
KBI1 201417Z 18016KT 25/20 A2999 RMK A01 T02520197  RH  071%=      5-min Rain = 0
KBI1 201418Z 17018KT 25/20 A2999 RMK A01 T02520197  RH  072%=      5-min Rain = 0
KBI1 201419Z 17016KT 25/20 A2999 RMK A01 T02510197  RH  072%=      5-min Rain = 0
KBI1 201420Z 17016KT 25/20 A2999 RMK A01 T02500197  RH  072%=      5-min Rain = 0
KBI1 201421Z 18016KT 25/20 A2999 RMK A01 T02500197  RH  072%=      5-min Rain = 0
KBI1 201422Z 17016KT 25/20 A2999 RMK A01 T02510196  RH  072%=      5-min Rain = 0
KBI1 201423Z 17012KT 25/20 A2999 RMK A01 T02510197  RH  072%=      5-min Rain = 0
KBI1 201424Z 18014KT 25/20 A2999 RMK A01 T02510198  RH  072%=      5-min Rain = 0
KBI1 201425Z 17015KT 25/20 A2999 RMK A01 T02520198  RH  072%=      5-min Rain = 0
KBI1 201426Z 17018KT 25/20 A2999 RMK A01 T02520197  RH  071%=      5-min Rain = 0
KBI1 201427Z 17015KT 25/20 A2999 RMK A01 T02530197  RH  071%=      5-min Rain = 0
KBI1 201428Z 18016KT 25/20 A2999 RMK A01 T02530196  RH  071%=      5-min Rain = 0
KBI1 201429Z 18014KT 25/20 A2999 RMK A01 T02540196  RH  071%=      5-min Rain = 0
KBI1 201430Z 18017KT 25/20 A2999 RMK A01 T02540197  RH  071%=      5-min Rain = 0
KBI1 201431Z 18017KT 25/20 A2999 RMK A01 T02540197  RH  071%=      5-min Rain = 0
KBI1 201432Z 18016KT 25/20 A2999 RMK A01 T02540197  RH  071%=      5-min Rain = 0
KBI1 201433Z 18017KT 25/20 A2999 RMK A01 T02530197  RH  071%=      5-min Rain = 0
KBI1 201434Z 19014G19KT 26/20 A2999 RMK A01 T02550198  RH  071%=      5-min Rain = 0
KBI1 201435Z 18015KT 26/20 A2999 RMK A01 T02550197  RH  070%=      5-min Rain = 0
KBI1 201436Z 18016KT 26/20 A2999 RMK A01 T02560199  RH  071%=      5-min Rain = 0
KBI1 201437Z 18016KT 26/20 A2999 RMK A01 T02580197  RH  069%=      5-min Rain = 0
KBI1 201438Z 18017KT 26/20 A2999 RMK A01 T02570197  RH  070%=      5-min Rain = 0
KBI1 201439Z 18016KT 26/20 A2999 RMK A01 T02560197  RH  070%=      5-min Rain = 0
KBI1 201440Z 17014KT 26/20 A2999 RMK A01 T02570198  RH  070%=      5-min Rain = 0
KBI1 201441Z 18012G17KT 26/20 A2999 RMK A01 T02570199  RH  070%=      5-min Rain = 0
KBI1 201442Z 18015KT 26/20 A2999 RMK A01 T02600200  RH  069%=      5-min Rain = 0
KBI1 201443Z 17016KT 26/20 A2999 RMK A01 T02600198  RH  069%=      5-min Rain = 0
KBI1 201444Z 17014KT 26/20 A2999 RMK A01 T02590199  RH  069%=      5-min Rain = 0
KBI1 201445Z 16014KT 26/20 A2999 RMK A01 T02590198  RH  069%=      5-min Rain = 0
KBI1 201446Z 17014KT 26/20 A2999 RMK A01 T02600199  RH  069%=      5-min Rain = 0
KBI1 201447Z 17014KT 26/20 A2999 RMK A01 T02600199  RH  069%=      5-min Rain = 0
KBI1 201448Z 17015G20KT 26/20 A2999 RMK A01 T02600199  RH  069%=      5-min Rain = 0
KBI1 201449Z 17016KT 26/20 A2999 RMK A01 T02610199  RH  068%=      5-min Rain = 0
KBI1 201450Z 17015KT 26/20 A2999 RMK A01 T02600198  RH  069%=      5-min Rain = 0
KBI1 201451Z 17014KT 26/20 A2999 RMK A01 T02590198  RH  069%=      5-min Rain = 0
KBI1 201452Z 17015KT 26/20 A2999 RMK A01 T02600199  RH  069%=      5-min Rain = 0
KBI1 201453Z 16014KT 26/20 A2999 RMK A01 T02610199  RH  068%=      5-min Rain = 0
KBI1 201454Z 16014KT 26/20 A2999 RMK A01 T02620199  RH  068%=      5-min Rain = 0
KBI1 201455Z 17013G18KT 26/20 A2999 RMK A01 T02620199  RH  068%=      5-min Rain = 0
KBI1 201456Z 16014KT 26/20 A2999 RMK A01 T02620199  RH  068%=      5-min Rain = 0
KBI1 201457Z 17017KT 26/20 A2999 RMK A01 T02620198  RH  068%=      5-min Rain = 0
KBI1 201458Z 18013KT 26/20 A2999 RMK A01 T02630198  RH  067%=      5-min Rain = 0
KBI1 201459Z 17011KT 27/20 A2999 RMK A01 T02650200  RH  067%=      5-min Rain = 0
KBI1 201500Z 19012KT 27/20 A2999 RMK A01 T02680201  RH  067%=      5-min Rain = 0
KBI1 201501Z 19017G22KT 27/20 A2999 RMK A01 T02690199  RH  066%=      5-min Rain = 0
KBI1 201502Z 18017KT 27/20 A2999 RMK A01 T02680198  RH  066%=      5-min Rain = 0
KBI1 201503Z 19014G19KT 27/20 A2999 RMK A01 T02670199  RH  066%=      5-min Rain = 0
KBI1 201504Z 19017KT 27/20 A2999 RMK A01 T02660198  RH  066%=      5-min Rain = 0
KBI1 201505Z 18014G19KT 27/20 A2999 RMK A01 T02660199  RH  067%=      5-min Rain = 0
KBI1 201506Z 17017G22KT 27/20 A2999 RMK A01 T02670199  RH  066%=      5-min Rain = 0
KBI1 201507Z 17018KT 27/20 A2999 RMK A01 T02680198  RH  065%=      5-min Rain = 0
KBI1 201508Z 18013KT 27/20 A2999 RMK A01 T02670197  RH  066%=      5-min Rain = 0
KBI1 201509Z 17014KT 27/20 A2999 RMK A01 T02690199  RH  066%=      5-min Rain = 0
KBI1 201510Z 17018KT 27/20 A2999 RMK A01 T02710199  RH  065%=      5-min Rain = 0
KBI1 201511Z 17017KT 27/20 A2999 RMK A01 T02700197  RH  064%=      5-min Rain = 0
KBI1 201512Z 17013G19KT 27/20 A2999 RMK A01 T02690198  RH  065%=      5-min Rain = 0
KBI1 201513Z 17016KT 27/20 A2999 RMK A01 T02700198  RH  065%=      5-min Rain = 0
KBI1 201514Z 18017KT 27/20 A2999 RMK A01 T02700197  RH  064%=      5-min Rain = 0
KBI1 201515Z 18017KT 27/20 A2999 RMK A01 T02700198  RH  065%=      5-min Rain = 0
KBI1 201516Z 18017KT 27/20 A2999 RMK A01 T02690197  RH  065%=      5-min Rain = 0
KBI1 201517Z 17016KT 27/20 A2999 RMK A01 T02690198  RH  065%=      5-min Rain = 0
KBI1 201518Z 17015G20KT 27/20 A2999 RMK A01 T02700198  RH  064%=      5-min Rain = 0
KBI1 201519Z 17016KT 27/20 A2999 RMK A01 T02720198  RH  064%=      5-min Rain = 0
KBI1 201520Z 18015KT 27/20 A2999 RMK A01 T02730198  RH  064%=      5-min Rain = 0
KBI1 201521Z 17013KT 27/20 A2999 RMK A01 T02720199  RH  064%=      5-min Rain = 0
KBI1 201522Z 17011KT 27/20 A2999 RMK A01 T02730199  RH  064%=      5-min Rain = 0
KBI1 201523Z 17013KT 28/20 A2999 RMK A01 T02750200  RH  064%=      5-min Rain = 0
KBI1 201524Z 17015KT 28/20 A2999 RMK A01 T02760199  RH  063%=      5-min Rain = 0
KBI1 201525Z 18015KT 27/20 A2999 RMK A01 T02740198  RH  063%=      5-min Rain = 0
KBI1 201526Z 17015KT 27/20 A2999 RMK A01 T02730199  RH  064%=      5-min Rain = 0
KBI1 201527Z 17016KT 27/20 A2999 RMK A01 T02730197  RH  063%=      5-min Rain = 0
KBI1 201528Z 17012KT 27/20 A2999 RMK A01 T02740199  RH  064%=      5-min Rain = 0
KBI1 201529Z 16015KT 28/20 A2999 RMK A01 T02760199  RH  063%=      5-min Rain = 0
KBI1 201530Z 16012KT 28/20 A30 RMK A01 T02770200  RH  063%=      5-min Rain = 0
KBI1 201531Z 16012KT 28/20 A2999 RMK A01 T02780201  RH  063%=      5-min Rain = 0
KBI1 201532Z 17013KT 28/20 A2999 RMK A01 T02800201  RH  062%=      5-min Rain = 0
KBI1 201533Z 18015KT 28/20 A2999 RMK A01 T02800200  RH  062%=      5-min Rain = 0
KBI1 201534Z 18013KT 28/20 A2999 RMK A01 T02790199  RH  062%=      5-min Rain = 0
KBI1 201535Z 18011KT 28/20 A2999 RMK A01 T02790200  RH  062%=      5-min Rain = 0
KBI1 201536Z 17015KT 28/20 A2999 RMK A01 T02830201  RH  061%=      5-min Rain = 0
KBI1 201537Z 18012KT 28/20 A2999 RMK A01 T02830200  RH  061%=      5-min Rain = 0
KBI1 201538Z 19011KT 28/20 A2999 RMK A01 T02820200  RH  061%=      5-min Rain = 0
KBI1 201539Z 18015KT 28/20 A2999 RMK A01 T02830200  RH  061%=      5-min Rain = 0
KBI1 201540Z 18012KT 28/20 A2999 RMK A01 T02820200  RH  061%=      5-min Rain = 0
KBI1 201541Z 19015KT 28/20 A2999 RMK A01 T02810200  RH  061%=      5-min Rain = 0
KBI1 201542Z 17012G18KT 28/20 A30 RMK A01 T02820200  RH  061%=      5-min Rain = 0
KBI1 201543Z 17017G22KT 28/20 A2999 RMK A01 T02840197  RH  059%=      5-min Rain = 0
KBI1 201544Z 17015KT 28/20 A30 RMK A01 T02840196  RH  059%=      5-min Rain = 0
KBI1 201545Z 18013KT 28/20 A30 RMK A01 T02830197  RH  060%=      5-min Rain = 0
KBI1 201546Z 18013KT 28/20 A30 RMK A01 T02830196  RH  059%=      5-min Rain = 0
KBI1 201547Z 17012KT 28/20 A30 RMK A01 T02840197  RH  059%=      5-min Rain = 0
KBI1 201548Z 19014KT 28/20 A2999 RMK A01 T02840199  RH  060%=      5-min Rain = 0
KBI1 201549Z 18017KT 29/20 A30 RMK A01 T02850199  RH  060%=      5-min Rain = 0
KBI1 201550Z 18013KT 28/20 A30 RMK A01 T02840198  RH  060%=      5-min Rain = 0
KBI1 201551Z 17013KT 28/20 A2999 RMK A01 T02830198  RH  060%=      5-min Rain = 0
KBI1 201552Z 17013G19KT 28/20 A2999 RMK A01 T02840196  RH  059%=      5-min Rain = 0
KBI1 201553Z 17013KT 29/20 A2999 RMK A01 T02850198  RH  059%=      5-min Rain = 0
KBI1 201554Z 18014G19KT 29/20 A2999 RMK A01 T02870198  RH  059%=      5-min Rain = 0
KBI1 201555Z 18017KT 29/20 A2999 RMK A01 T02870197  RH  058%=      5-min Rain = 0
KBI1 201556Z 17014KT 29/20 A2999 RMK A01 T02860197  RH  059%=      5-min Rain = 0
KBI1 201557Z 17015KT 28/20 A2999 RMK A01 T02840197  RH  059%=      5-min Rain = 0
KBI1 201558Z 18015KT 28/20 A2999 RMK A01 T02840196  RH  059%=      5-min Rain = 0
KBI1 201559Z 18014KT 28/20 A2999 RMK A01 T02840197  RH  059%=      5-min Rain = 0
KBI1 201600Z 18015KT 29/20 A2999 RMK A01 T02860197  RH  059%=      5-min Rain = 0
KBI1 201601Z 16011KT 29/20 A2999 RMK A01 T02860197  RH  058%=      5-min Rain = 0
KBI1 201602Z 16012KT 29/20 A2999 RMK A01 T02860197  RH  059%=      5-min Rain = 0
KBI1 201603Z 16013KT 29/20 A2999 RMK A01 T02870198  RH  059%=      5-min Rain = 0
KBI1 201604Z 16012KT 29/20 A2999 RMK A01 T02860196  RH  058%=      5-min Rain = 0
KBI1 201605Z 17014KT 29/20 A2999 RMK A01 T02860197  RH  059%=      5-min Rain = 0
KBI1 201606Z 16013G18KT 29/20 A2999 RMK A01 T02870196  RH  058%=      5-min Rain = 0
KBI1 201607Z 17016KT 29/20 A2999 RMK A01 T02870196  RH  058%=      5-min Rain = 0
KBI1 201608Z 18014KT 29/20 A2999 RMK A01 T02870196  RH  058%=      5-min Rain = 0
KBI1 201609Z 18013KT 29/20 A2999 RMK A01 T02890198  RH  058%=      5-min Rain = 0
KBI1 201610Z 18013KT 29/20 A2999 RMK A01 T02910199  RH  058%=      5-min Rain = 0
KBI1 201611Z 17013KT 29/20 A30 RMK A01 T02930200  RH  057%=      5-min Rain = 0
KBI1 201612Z 17012KT 29/20 A30 RMK A01 T02930199  RH  057%=      5-min Rain = 0
KBI1 201613Z 18014KT 29/20 A30 RMK A01 T02940197  RH  056%=      5-min Rain = 0
KBI1 201614Z 18016KT 29/20 A30 RMK A01 T02940196  RH  056%=      5-min Rain = 0
KBI1 201615Z 18015KT 29/20 A30 RMK A01 T02920197  RH  056%=      5-min Rain = 0
KBI1 201616Z 17016KT 29/20 A30 RMK A01 T02910199  RH  057%=      5-min Rain = 0
KBI1 201617Z 17014KT 29/20 A30 RMK A01 T02910198  RH  057%=      5-min Rain = 0
KBI1 201618Z 17013KT 29/20 A30 RMK A01 T02900197  RH  057%=      5-min Rain = 0
KBI1 201619Z 17013KT 29/20 A30 RMK A01 T02930196  RH  056%=      5-min Rain = 0
KBI1 201620Z 17015KT 30/20 A30 RMK A01 T02950196  RH  055%=      5-min Rain = 0
KBI1 201621Z 17016KT 30/20 A30 RMK A01 T02950196  RH  055%=      5-min Rain = 0
KBI1 201622Z 18014KT 29/19 A30 RMK A01 T02940194  RH  055%=      5-min Rain = 0
KBI1 201623Z 17014KT 29/19 A30 RMK A01 T02930194  RH  055%=      5-min Rain = 0
KBI1 201624Z 16013KT 29/20 A30 RMK A01 T02930196  RH  056%=      5-min Rain = 0
KBI1 201625Z 16013KT 29/20 A30 RMK A01 T02930195  RH  055%=      5-min Rain = 0
KBI1 201626Z 16012KT 29/20 A30 RMK A01 T02920197  RH  056%=      5-min Rain = 0
KBI1 201627Z 18015KT 29/20 A30 RMK A01 T02940195  RH  055%=      5-min Rain = 0
KBI1 201628Z 17014KT 30/20 A30 RMK A01 T02960196  RH  055%=      5-min Rain = 0
KBI1 201629Z 16012KT 30/20 A30 RMK A01 T02960197  RH  055%=      5-min Rain = 0
KBI1 201630Z 17013KT 30/20 A30 RMK A01 T02960198  RH  055%=      5-min Rain = 0
KBI1 201631Z 16012KT 30/20 A30 RMK A01 T02980199  RH  055%=      5-min Rain = 0
KBI1 201632Z 15010KT 30/20 A30 RMK A01 T02990199  RH  055%=      5-min Rain = 0
KBI1 201633Z 17011KT 30/20 A30 RMK A01 T02990199  RH  055%=      5-min Rain = 0
KBI1 201634Z 17012G17KT 30/20 A2999 RMK A01 T02990198  RH  055%=      5-min Rain = 0
KBI1 201635Z 17014KT 30/20 A2999 RMK A01 T03020197  RH  053%=      5-min Rain = 0
KBI1 201636Z 16012KT 30/20 A2999 RMK A01 T03030197  RH  053%=      5-min Rain = 0
KBI1 201637Z 17013KT 30/20 A2999 RMK A01 T03030198  RH  054%=      5-min Rain = 0
KBI1 201638Z 17014KT 30/20 A2999 RMK A01 T03020197  RH  053%=      5-min Rain = 0
KBI1 201639Z 16012KT 30/20 A2999 RMK A01 T03010198  RH  054%=      5-min Rain = 0
KBI1 201640Z 15014KT 30/19 A2999 RMK A01 T03000194  RH  053%=      5-min Rain = 0
KBI1 201641Z 17015KT 30/19 A2999 RMK A01 T03000192  RH  052%=      5-min Rain = 0
KBI1 201642Z 17017KT 30/19 A2999 RMK A01 T03020191  RH  051%=      5-min Rain = 0
KBI1 201643Z 16015KT 30/19 A2999 RMK A01 T03020192  RH  052%=      5-min Rain = 0
KBI1 201644Z 17012KT 30/19 A2999 RMK A01 T03010192  RH  052%=      5-min Rain = 0
KBI1 201645Z 18011KT 30/19 A2999 RMK A01 T03020194  RH  052%=      5-min Rain = 0
KBI1 201646Z 19014G19KT 31/19 A2999 RMK A01 T03060193  RH  051%=      5-min Rain = 0
KBI1 201647Z 18018KT 31/19 A2999 RMK A01 T03080191  RH  050%=      5-min Rain = 0
KBI1 201648Z 18018KT 31/19 A2999 RMK A01 T03060189  RH  049%=      5-min Rain = 0
KBI1 201649Z 16015G20KT 31/19 A2999 RMK A01 T03050187  RH  049%=      5-min Rain = 0
KBI1 201650Z 17015KT 30/19 A2999 RMK A01 T03040189  RH  050%=      5-min Rain = 0
KBI1 201651Z 18014KT 31/19 A2999 RMK A01 T03050192  RH  051%=      5-min Rain = 0
KBI1 201652Z 17013KT 31/19 A2999 RMK A01 T03050193  RH  051%=      5-min Rain = 0
KBI1 201653Z 18013KT 31/19 A2999 RMK A01 T03060193  RH  051%=      5-min Rain = 0
KBI1 201654Z 18013KT 31/20 A2999 RMK A01 T03070196  RH  051%=      5-min Rain = 0
KBI1 201655Z 17009KT 31/20 A2999 RMK A01 T03090198  RH  051%=      5-min Rain = 0
KBI1 201656Z 17013KT 31/20 A2999 RMK A01 T03110197  RH  051%=      5-min Rain = 0
KBI1 201657Z 16015KT 31/19 A2999 RMK A01 T03100194  RH  050%=      5-min Rain = 0
KBI1 201658Z 17013KT 31/19 A2999 RMK A01 T03090190  RH  049%=      5-min Rain = 0
KBI1 201659Z 17013KT 31/19 A2999 RMK A01 T03100189  RH  049%=      5-min Rain = 0
KBI1 201700Z 17012KT 31/19 A2999 RMK A01 T03110190  RH  048%=      5-min Rain = 0
KBI1 201701Z 18012G17KT 31/19 A2999 RMK A01 T03120191  RH  048%=      5-min Rain = 0
KBI1 201702Z 18013KT 32/19 A2999 RMK A01 T03150189  RH  047%=      5-min Rain = 0
KBI1 201703Z 17014KT 32/19 A2999 RMK A01 T03150190  RH  047%=      5-min Rain = 0
KBI1 201704Z 17012KT 32/19 A2999 RMK A01 T03150191  RH  048%=      5-min Rain = 0
KBI1 201705Z 17014KT 31/19 A2999 RMK A01 T03140192  RH  048%=      5-min Rain = 0
KBI1 201706Z 18011KT 31/19 A2999 RMK A01 T03140192  RH  048%=      5-min Rain = 0
KBI1 201707Z 18012KT 32/19 A2999 RMK A01 T03180193  RH  048%=      5-min Rain = 0
KBI1 201708Z 17012KT 32/19 A2999 RMK A01 T03210193  RH  047%=      5-min Rain = 0
KBI1 201709Z 16015KT 32/19 A2999 RMK A01 T03210191  RH  046%=      5-min Rain = 0
KBI1 201710Z 15016KT 32/19 A2999 RMK A01 T03180189  RH  046%=      5-min Rain = 0
KBI1 201711Z 17016KT 32/19 A2999 RMK A01 T03160189  RH  047%=      5-min Rain = 0
KBI1 201712Z 16015G22KT 32/19 A2999 RMK A01 T03160190  RH  047%=      5-min Rain = 0
KBI1 201713Z 17014KT 32/19 A2999 RMK A01 T03160189  RH  047%=      5-min Rain = 0
KBI1 201714Z 18016KT 32/19 A2999 RMK A01 T03160186  RH  046%=      5-min Rain = 0
KBI1 201715Z 17014KT 32/19 A2999 RMK A01 T03170185  RH  046%=      5-min Rain = 0
KBI1 201716Z 18014KT 32/19 A2999 RMK A01 T03180187  RH  046%=      5-min Rain = 0
KBI1 201717Z 19013G20KT 32/19 A2999 RMK A01 T03190190  RH  046%=      5-min Rain = 0
KBI1 201718Z 18015KT 32/19 A2999 RMK A01 T03240192  RH  046%=      5-min Rain = 0
KBI1 201719Z 18014KT 32/19 A2999 RMK A01 T03220191  RH  046%=      5-min Rain = 0
KBI1 201720Z 17014KT 32/19 A2999 RMK A01 T03190192  RH  047%=      5-min Rain = 0
KBI1 201721Z 17013KT 32/19 A2999 RMK A01 T03180193  RH  048%=      5-min Rain = 0
KBI1 201722Z 18013KT 32/19 A2999 RMK A01 T03200191  RH  046%=      5-min Rain = 0
KBI1 201723Z 18017KT 32/19 A2999 RMK A01 T03230187  RH  045%=      5-min Rain = 0
KBI1 201724Z 19014KT 32/18 A2999 RMK A01 T03220184  RH  044%=      5-min Rain = 0
KBI1 201725Z 19016KT 32/19 A2999 RMK A01 T03210185  RH  044%=      5-min Rain = 0
KBI1 201726Z 19015KT 32/18 A2999 RMK A01 T03190183  RH  044%=      5-min Rain = 0
KBI1 201727Z 18015KT 32/19 A2999 RMK A01 T03180186  RH  046%=      5-min Rain = 0
KBI1 201728Z 18016KT 32/19 A2999 RMK A01 T03200185  RH  045%=      5-min Rain = 0
KBI1 201729Z 18014KT 32/19 A2999 RMK A01 T03210186  RH  045%=      5-min Rain = 0
KBI1 201730Z 18013KT 32/19 A2999 RMK A01 T03220188  RH  045%=      5-min Rain = 0
KBI1 201731Z 19012KT 32/19 A2999 RMK A01 T03230188  RH  045%=      5-min Rain = 0
KBI1 201732Z 18017KT 32/18 A2999 RMK A01 T03240184  RH  044%=      5-min Rain = 0
KBI1 201733Z 18015KT 32/18 A2999 RMK A01 T03230184  RH  044%=      5-min Rain = 0
KBI1 201734Z 18011KT 32/19 A2999 RMK A01 T03220189  RH  045%=      5-min Rain = 0
KBI1 201735Z 17013KT 32/19 A2999 RMK A01 T03230190  RH  045%=      5-min Rain = 0
KBI1 201736Z 17013KT 33/19 A2999 RMK A01 T03260193  RH  045%=      5-min Rain = 0
KBI1 201737Z 16015G20KT 32/19 A2999 RMK A01 T03240190  RH  045%=      5-min Rain = 0
KBI1 201738Z 16012KT 32/19 A2999 RMK A01 T03200189  RH  046%=      5-min Rain = 0
KBI1 201739Z 16011G16KT 32/19 A2999 RMK A01 T03200190  RH  046%=      5-min Rain = 0
KBI1 201740Z 16014G19KT 32/19 A2999 RMK A01 T03220190  RH  046%=      5-min Rain = 0
KBI1 201741Z 17012KT 32/19 A2999 RMK A01 T03200190  RH  046%=      5-min Rain = 0
KBI1 201742Z 17012KT 32/19 A2999 RMK A01 T03200191  RH  047%=      5-min Rain = 0
KBI1 201743Z 16013KT 32/19 A2999 RMK A01 T03210191  RH  046%=      5-min Rain = 0
KBI1 201744Z 16015KT 32/19 A2999 RMK A01 T03220189  RH  045%=      5-min Rain = 0
KBI1 201745Z 16013KT 32/19 A2999 RMK A01 T03200186  RH  045%=      5-min Rain = 0
KBI1 201746Z 15010KT 32/19 A2998 RMK A01 T03200187  RH  045%=      5-min Rain = 0
KBI1 201747Z 16011G16KT 32/19 A2998 RMK A01 T03200189  RH  046%=      5-min Rain = 0
KBI1 201748Z 18017G22KT 32/19 A2998 RMK A01 T03220191  RH  046%=      5-min Rain = 0
KBI1 201749Z 17014KT 32/19 A2998 RMK A01 T03230191  RH  046%=      5-min Rain = 0
KBI1 201750Z 16015G21KT 32/19 A2999 RMK A01 T03220191  RH  046%=      5-min Rain = 0
KBI1 201751Z 16016KT 32/19 A2998 RMK A01 T03210189  RH  046%=      5-min Rain = 0
KBI1 201752Z 16013KT 32/19 A2998 RMK A01 T03210191  RH  046%=      5-min Rain = 0
KBI1 201753Z 18014KT 33/19 A2998 RMK A01 T03250191  RH  045%=      5-min Rain = 0
KBI1 201754Z 16014KT 33/19 A2998 RMK A01 T03250189  RH  045%=      5-min Rain = 0
KBI1 201755Z 15013KT 32/19 A2998 RMK A01 T03240188  RH  045%=      5-min Rain = 0
KBI1 201756Z 17010KT 33/19 A2998 RMK A01 T03250191  RH  045%=      5-min Rain = 0
KBI1 201757Z 17010KT 33/19 A2998 RMK A01 T03300192  RH  044%=      5-min Rain = 0
KBI1 201758Z 16012KT 33/19 A2998 RMK A01 T03330189  RH  043%=      5-min Rain = 0
KBI1 201759Z 16012KT 33/19 A2998 RMK A01 T03310187  RH  043%=      5-min Rain = 0
KBI1 201800Z 17013KT 33/19 A2998 RMK A01 T03300186  RH  042%=      5-min Rain = 0
KBI1 201801Z 16014KT 33/19 A2998 RMK A01 T03310185  RH  042%=      5-min Rain = 0
KBI1 201802Z 16014KT 33/18 A2998 RMK A01 T03310184  RH  042%=      5-min Rain = 0
KBI1 201803Z 17014KT 33/19 A2998 RMK A01 T03270186  RH  043%=      5-min Rain = 0
KBI1 201804Z 18013KT 33/19 A2998 RMK A01 T03260189  RH  044%=      5-min Rain = 0
KBI1 201805Z 18013KT 33/19 A2998 RMK A01 T03300189  RH  043%=      5-min Rain = 0
KBI1 201806Z 18012G17KT 33/19 A2998 RMK A01 T03340190  RH  042%=      5-min Rain = 0
KBI1 201807Z 18016KT 34/19 A2998 RMK A01 T03350187  RH  042%=      5-min Rain = 0
KBI1 201808Z 16014KT 33/19 A2998 RMK A01 T03310188  RH  043%=      5-min Rain = 0
KBI1 201809Z 16014KT 33/19 A2998 RMK A01 T03280188  RH  044%=      5-min Rain = 0
KBI1 201810Z 17014KT 33/19 A2998 RMK A01 T03280188  RH  044%=      5-min Rain = 0
KBI1 201811Z 18012KT 33/19 A2998 RMK A01 T03270187  RH  044%=      5-min Rain = 0
KBI1 201812Z 17010KT 33/19 A2998 RMK A01 T03280189  RH  044%=      5-min Rain = 0
KBI1 201813Z 16012G18KT 33/19 A2998 RMK A01 T03330189  RH  043%=      5-min Rain = 0
KBI1 201814Z 16012KT 34/19 A2998 RMK A01 T03350187  RH  042%=      5-min Rain = 0
KBI1 201815Z 17012G17KT 33/19 A2998 RMK A01 T03340188  RH  042%=      5-min Rain = 0
KBI1 201816Z 17016KT 33/19 A2998 RMK A01 T03330186  RH  042%=      5-min Rain = 0
KBI1 201817Z 18017KT 33/18 A2998 RMK A01 T03320183  RH  041%=      5-min Rain = 0
KBI1 201818Z 17015KT 33/18 A2998 RMK A01 T03300183  RH  042%=      5-min Rain = 0
KBI1 201819Z 17013G18KT 33/18 A2998 RMK A01 T03290182  RH  042%=      5-min Rain = 0
KBI1 201820Z 17013KT 33/18 A2998 RMK A01 T03300182  RH  041%=      5-min Rain = 0
KBI1 201821Z 18014KT 33/18 A2998 RMK A01 T03310179  RH  041%=      5-min Rain = 0
KBI1 201822Z 17017KT 33/18 A2998 RMK A01 T03310178  RH  040%=      5-min Rain = 0
KBI1 201823Z 17012KT 33/18 A2998 RMK A01 T03300179  RH  041%=      5-min Rain = 0
KBI1 201824Z 18015KT 33/18 A2998 RMK A01 T03300182  RH  041%=      5-min Rain = 0
KBI1 201825Z 18016KT 33/19 A2998 RMK A01 T03330185  RH  041%=      5-min Rain = 0
KBI1 201826Z 17014KT 33/18 A2998 RMK A01 T03320182  RH  041%=      5-min Rain = 0
KBI1 201827Z 17017G22KT 33/19 A2998 RMK A01 T03310185  RH  042%=      5-min Rain = 0
KBI1 201828Z 18016KT 33/19 A2998 RMK A01 T03310186  RH  042%=      5-min Rain = 0
KBI1 201829Z 19014KT 33/18 A2998 RMK A01 T03320184  RH  042%=      5-min Rain = 0
KBI1 201830Z 18014KT 33/19 A2998 RMK A01 T03330185  RH  041%=      5-min Rain = 0
KBI1 201831Z 18015KT 33/18 A2998 RMK A01 T03330184  RH  041%=      5-min Rain = 0
KBI1 201832Z 17015KT 33/18 A2998 RMK A01 T03340183  RH  041%=      5-min Rain = 0
KBI1 201833Z 16014KT 33/18 A2998 RMK A01 T03340178  RH  040%=      5-min Rain = 0
KBI1 201834Z 18016KT 33/18 A2998 RMK A01 T03330179  RH  040%=      5-min Rain = 0
KBI1 201835Z 18016KT 33/18 A2998 RMK A01 T03340178  RH  040%=      5-min Rain = 0
KBI1 201836Z 18014KT 33/18 A2997 RMK A01 T03330177  RH  039%=      5-min Rain = 0
KBI1 201837Z 17011KT 34/18 A2997 RMK A01 T03350181  RH  040%=      5-min Rain = 0
KBI1 201838Z 17012G17KT 34/18 A2997 RMK A01 T03390182  RH  039%=      5-min Rain = 0
KBI1 201839Z 17015KT 34/18 A2997 RMK A01 T03420180  RH  038%=      5-min Rain = 0
KBI1 201840Z 17013KT 34/18 A2997 RMK A01 T03390176  RH  038%=      5-min Rain = 0
KBI1 201841Z 17013G18KT 34/18 A2997 RMK A01 T03370180  RH  039%=      5-min Rain = 0
KBI1 201842Z 18016KT 34/18 A2997 RMK A01 T03400177  RH  038%=      5-min Rain = 0
KBI1 201843Z 18014KT 34/18 A2997 RMK A01 T03390176  RH  038%=      5-min Rain = 0
KBI1 201844Z 17014KT 34/18 A2997 RMK A01 T03380178  RH  039%=      5-min Rain = 0
KBI1 201845Z 16012G17KT 34/18 A2997 RMK A01 T03380178  RH  039%=      5-min Rain = 0
KBI1 201846Z 16012G17KT 34/18 A2997 RMK A01 T03380179  RH  039%=      5-min Rain = 0
KBI1 201847Z 16015G20KT 34/18 A2997 RMK A01 T03390180  RH  039%=      5-min Rain = 0
KBI1 201848Z 17016KT 34/18 A2997 RMK A01 T03390179  RH  039%=      5-min Rain = 0
KBI1 201849Z 18013KT 34/18 A2997 RMK A01 T03380179  RH  039%=      5-min Rain = 0
KBI1 201850Z 17014KT 34/18 A2997 RMK A01 T03410181  RH  039%=      5-min Rain = 0
KBI1 201851Z 18015KT 34/18 A2997 RMK A01 T03410179  RH  038%=      5-min Rain = 0
KBI1 201852Z 17014KT 34/18 A2996 RMK A01 T03390179  RH  039%=      5-min Rain = 0
KBI1 201853Z 17014KT 34/18 A2996 RMK A01 T03370175  RH  038%=      5-min Rain = 0
KBI1 201854Z 16011KT 34/18 A2996 RMK A01 T03360176  RH  039%=      5-min Rain = 0
KBI1 201855Z 17014G21KT 34/18 A2996 RMK A01 T03390175  RH  038%=      5-min Rain = 0
KBI1 201856Z 16015KT 34/17 A2996 RMK A01 T03400174  RH  037%=      5-min Rain = 0
KBI1 201857Z 16017KT 34/17 A2996 RMK A01 T03390173  RH  037%=      5-min Rain = 0
KBI1 201858Z 16013KT 34/17 A2996 RMK A01 T03360171  RH  037%=      5-min Rain = 0
KBI1 201859Z 16015G20KT 34/17 A2996 RMK A01 T03360173  RH  038%=      5-min Rain = 0
KBI1 201900Z 17015KT 34/17 A2996 RMK A01 T03370174  RH  038%=      5-min Rain = 0
KBI1 201901Z 18016G22KT 34/17 A2996 RMK A01 T03390174  RH  038%=      5-min Rain = 0
KBI1 201902Z 17017KT 34/17 A2996 RMK A01 T03400174  RH  037%=      5-min Rain = 0
KBI1 201903Z 17013KT 34/17 A2996 RMK A01 T03400174  RH  037%=      5-min Rain = 0
KBI1 201904Z 16009G14KT 34/17 A2996 RMK A01 T03410174  RH  037%=      5-min Rain = 0
KBI1 201905Z 17012KT 34/18 A2996 RMK A01 T03420177  RH  038%=      5-min Rain = 0
KBI1 201906Z 17016KT 34/17 A2996 RMK A01 T03440174  RH  036%=      5-min Rain = 0
KBI1 201907Z 18014KT 34/17 A2996 RMK A01 T03430174  RH  037%=      5-min Rain = 0
KBI1 201908Z 19011KT 34/17 A2996 RMK A01 T03430174  RH  037%=      5-min Rain = 0
KBI1 201909Z 17016G22KT 34/18 A2996 RMK A01 T03430175  RH  037%=      5-min Rain = 0
KBI1 201910Z 18014KT 34/17 A2996 RMK A01 T03420174  RH  037%=      5-min Rain = 0
KBI1 201911Z 16012KT 34/17 A2996 RMK A01 T03410173  RH  037%=      5-min Rain = 0
KBI1 201912Z 16013G18KT 34/18 A2996 RMK A01 T03430176  RH  037%=      5-min Rain = 0
KBI1 201913Z 17013G18KT 34/17 A2996 RMK A01 T03440174  RH  036%=      5-min Rain = 0
KBI1 201914Z 17012KT 34/18 A2996 RMK A01 T03430175  RH  037%=      5-min Rain = 0
KBI1 201915Z 17015G20KT 34/17 A2996 RMK A01 T03440174  RH  036%=      5-min Rain = 0
KBI1 201916Z 16013KT 34/17 A2996 RMK A01 T03440174  RH  037%=      5-min Rain = 0
KBI1 201917Z 15013G21KT 35/17 A2996 RMK A01 T03450173  RH  036%=      5-min Rain = 0
KBI1 201918Z 18017KT 35/17 A2995 RMK A01 T03450173  RH  036%=      5-min Rain = 0
KBI1 201919Z 16014KT 35/17 A2996 RMK A01 T03450174  RH  036%=      5-min Rain = 0
KBI1 201920Z 17013KT 35/17 A2996 RMK A01 T03450174  RH  036%=      5-min Rain = 0
KBI1 201921Z 16013KT 35/17 A2996 RMK A01 T03450174  RH  036%=      5-min Rain = 0
KBI1 201922Z 16013KT 34/18 A2995 RMK A01 T03440176  RH  037%=      5-min Rain = 0
KBI1 201923Z 18013KT 35/17 A2995 RMK A01 T03450173  RH  036%=      5-min Rain = 0
KBI1 201924Z 18013KT 35/17 A2995 RMK A01 T03470172  RH  035%=      5-min Rain = 0
KBI1 201925Z 18012KT 35/18 A2995 RMK A01 T03480175  RH  036%=      5-min Rain = 0
KBI1 201926Z 18013G18KT 35/18 A2995 RMK A01 T03480176  RH  036%=      5-min Rain = 0
KBI1 201927Z 18015G22KT 35/17 A2995 RMK A01 T03500173  RH  035%=      5-min Rain = 0
KBI1 201928Z 19013G18KT 35/17 A2995 RMK A01 T03500174  RH  035%=      5-min Rain = 0
KBI1 201929Z 19017KT 35/17 A2995 RMK A01 T03510171  RH  035%=      5-min Rain = 0
KBI1 201930Z 20016KT 35/17 A2995 RMK A01 T03460169  RH  035%=      5-min Rain = 0
KBI1 201931Z 20013KT 35/17 A2995 RMK A01 T03450171  RH  036%=      5-min Rain = 0
KBI1 201932Z 20012KT 35/17 A2995 RMK A01 T03460169  RH  035%=      5-min Rain = 0
KBI1 201933Z 21013KT 35/17 A2995 RMK A01 T03460169  RH  035%=      5-min Rain = 0
KBI1 201934Z 18013KT 35/17 A2995 RMK A01 T03460172  RH  036%=      5-min Rain = 0
KBI1 201935Z 17011KT 35/18 A2995 RMK A01 T03480175  RH  036%=      5-min Rain = 0
KBI1 201936Z 17012G17KT 35/18 A2995 RMK A01 T03500175  RH  036%=      5-min Rain = 0
KBI1 201937Z 17015KT 35/18 A2995 RMK A01 T03510175  RH  035%=      5-min Rain = 0
KBI1 201938Z 18013G18KT 35/17 A2995 RMK A01 T03520172  RH  035%=      5-min Rain = 0
KBI1 201939Z 18013G18KT 35/17 A2995 RMK A01 T03510172  RH  035%=      5-min Rain = 0
KBI1 201940Z 17014KT 35/17 A2995 RMK A01 T03500169  RH  034%=      5-min Rain = 0
KBI1 201941Z 16014KT 35/17 A2995 RMK A01 T03490168  RH  034%=      5-min Rain = 0
KBI1 201942Z 16015KT 35/17 A2995 RMK A01 T03470166  RH  034%=      5-min Rain = 0
KBI1 201943Z 15011KT 35/17 A2995 RMK A01 T03450166  RH  035%=      5-min Rain = 0
KBI1 201944Z 15010KT 34/17 A2995 RMK A01 T03440167  RH  035%=      5-min Rain = 0
KBI1 201945Z 15011KT 34/17 A2995 RMK A01 T03440167  RH  035%=      5-min Rain = 0
KBI1 201946Z 17012KT 35/17 A2995 RMK A01 T03460168  RH  035%=      5-min Rain = 0
KBI1 201947Z 19016G21KT 35/17 A2995 RMK A01 T03490166  RH  034%=      5-min Rain = 0
KBI1 201948Z 16014G19KT 35/17 A2995 RMK A01 T03480165  RH  034%=      5-min Rain = 0
KBI1 201949Z 16015KT 35/16 A2994 RMK A01 T03480164  RH  033%=      5-min Rain = 0
KBI1 201950Z 19014KT 35/17 A2995 RMK A01 T03460166  RH  034%=      5-min Rain = 0
KBI1 201951Z 18015KT 35/17 A2995 RMK A01 T03480168  RH  034%=      5-min Rain = 0
KBI1 201952Z 17013KT 35/17 A2995 RMK A01 T03500166  RH  034%=      5-min Rain = 0
KBI1 201953Z 17012KT 35/17 A2995 RMK A01 T03500168  RH  034%=      5-min Rain = 0
KBI1 201954Z 18011KT 35/17 A2995 RMK A01 T03510168  RH  034%=      5-min Rain = 0
KBI1 201955Z 17014G19KT 35/17 A2994 RMK A01 T03530169  RH  034%=      5-min Rain = 0
KBI1 201956Z 17015G20KT 35/16 A2994 RMK A01 T03530163  RH  032%=      5-min Rain = 0
KBI1 201957Z 17014KT 35/17 A2994 RMK A01 T03520165  RH  033%=      5-min Rain = 0
KBI1 201958Z 17013KT 35/16 A2994 RMK A01 T03500162  RH  033%=      5-min Rain = 0
KBI1 201959Z 18010KT 35/17 A2994 RMK A01 T03490165  RH  033%=      5-min Rain = 0
KBI1 202000Z 18011G16KT 35/17 A2994 RMK A01 T03530167  RH  033%=      5-min Rain = 0
KBI1 202001Z 18016KT 36/17 A2994 RMK A01 T03570168  RH  033%=      5-min Rain = 0
KBI1 202002Z 18015KT 36/17 A2994 RMK A01 T03570167  RH  033%=      5-min Rain = 0
KBI1 202003Z 18014KT 36/17 A2994 RMK A01 T03560169  RH  033%=      5-min Rain = 0
KBI1 202004Z 19013KT 36/17 A2994 RMK A01 T03550168  RH  033%=      5-min Rain = 0
KBI1 202005Z 20017KT 36/17 A2994 RMK A01 T03550165  RH  033%=      5-min Rain = 0
KBI1 202006Z 19014KT 35/16 A2994 RMK A01 T03520163  RH  033%=      5-min Rain = 0
KBI1 202007Z 19013KT 35/16 A2994 RMK A01 T03510163  RH  033%=      5-min Rain = 0
KBI1 202008Z 18015G21KT 35/17 A2994 RMK A01 T03510166  RH  033%=      5-min Rain = 0
KBI1 202009Z 19016KT 35/16 A2994 RMK A01 T03510164  RH  033%=      5-min Rain = 0
KBI1 202010Z 19014KT 35/16 A2994 RMK A01 T03510162  RH  033%=      5-min Rain = 0
KBI1 202011Z 19012KT 35/16 A2994 RMK A01 T03500164  RH  033%=      5-min Rain = 0
KBI1 202012Z 19011KT 35/17 A2994 RMK A01 T03530165  RH  033%=      5-min Rain = 0
KBI1 202013Z 21012KT 36/16 A2993 RMK A01 T03560163  RH  032%=      5-min Rain = 0
KBI1 202014Z 18011KT 36/16 A2993 RMK A01 T03550161  RH  032%=      5-min Rain = 0
KBI1 202015Z 16012G20KT 35/16 A2994 RMK A01 T03540162  RH  032%=      5-min Rain = 0
KBI1 202016Z 17013KT 36/17 A2994 RMK A01 T03550165  RH  032%=      5-min Rain = 0
KBI1 202017Z 19014KT 36/17 A2994 RMK A01 T03560165  RH  032%=      5-min Rain = 0
KBI1 202018Z 18010KT 36/16 A2994 RMK A01 T03550163  RH  032%=      5-min Rain = 0
KBI1 202019Z 16008KT 36/17 A2994 RMK A01 T03560166  RH  032%=      5-min Rain = 0
KBI1 202020Z 16013KT 36/16 A2993 RMK A01 T03570163  RH  032%=      5-min Rain = 0
KBI1 202021Z 17011KT 36/16 A2993 RMK A01 T03560163  RH  032%=      5-min Rain = 0
KBI1 202022Z 17013G21KT 36/17 A2993 RMK A01 T03560166  RH  032%=      5-min Rain = 0
KBI1 202023Z 17015KT 36/16 A2993 RMK A01 T03570164  RH  032%=      5-min Rain = 0
KBI1 202024Z 18015KT 36/16 A2993 RMK A01 T03560164  RH  032%=      5-min Rain = 0
KBI1 202025Z 18015KT 36/16 A2993 RMK A01 T03560162  RH  032%=      5-min Rain = 0
KBI1 202026Z 18014KT 36/16 A2993 RMK A01 T03550163  RH  032%=      5-min Rain = 0
KBI1 202027Z 20010KT 35/16 A2993 RMK A01 T03540163  RH  032%=      5-min Rain = 0
KBI1 202028Z 16011KT 36/17 A2993 RMK A01 T03560165  RH  032%=      5-min Rain = 0
KBI1 202029Z 16009KT 36/16 A2993 RMK A01 T03560163  RH  032%=      5-min Rain = 0
KBI1 202030Z 17015G22KT 36/16 A2993 RMK A01 T03560163  RH  032%=      5-min Rain = 0
KBI1 202031Z 17016G22KT 36/16 A2993 RMK A01 T03560161  RH  031%=      5-min Rain = 0
KBI1 202032Z 17013KT 35/16 A2993 RMK A01 T03540161  RH  032%=      5-min Rain = 0
KBI1 202033Z 17012KT 35/16 A2993 RMK A01 T03540160  RH  032%=      5-min Rain = 0
KBI1 202034Z 15009G14KT 35/16 A2993 RMK A01 T03530160  RH  032%=      5-min Rain = 0
KBI1 202035Z 17011KT 35/16 A2993 RMK A01 T03530161  RH  032%=      5-min Rain = 0
KBI1 202036Z 14010KT 35/16 A2993 RMK A01 T03540162  RH  032%=      5-min Rain = 0
KBI1 202037Z 15013G18KT 36/16 A2993 RMK A01 T03560163  RH  032%=      5-min Rain = 0
KBI1 202038Z 15014KT 36/16 A2993 RMK A01 T03570159  RH  031%=      5-min Rain = 0
KBI1 202039Z 16013KT 36/16 A2993 RMK A01 T03550160  RH  031%=      5-min Rain = 0
KBI1 202040Z 16014KT 36/16 A2993 RMK A01 T03550158  RH  031%=      5-min Rain = 0
KBI1 202041Z 16014KT 36/16 A2993 RMK A01 T03560158  RH  031%=      5-min Rain = 0
KBI1 202042Z 16013G18KT 36/16 A2993 RMK A01 T03550157  RH  031%=      5-min Rain = 0
KBI1 202043Z 16011G16KT 35/16 A2993 RMK A01 T03540158  RH  031%=      5-min Rain = 0
KBI1 202044Z 16013G18KT 36/16 A2993 RMK A01 T03550161  RH  032%=      5-min Rain = 0
KBI1 202045Z 16012KT 36/16 A2993 RMK A01 T03560161  RH  031%=      5-min Rain = 0
KBI1 202046Z 16013G18KT 36/16 A2993 RMK A01 T03590161  RH  031%=      5-min Rain = 0
KBI1 202047Z 16013KT 36/16 A2993 RMK A01 T03610159  RH  030%=      5-min Rain = 0
KBI1 202048Z 15009G14KT 36/16 A2993 RMK A01 T03590159  RH  031%=      5-min Rain = 0
KBI1 202049Z 18009KT 36/16 A2993 RMK A01 T03570160  RH  031%=      5-min Rain = 0
KBI1 202050Z 16014KT 36/16 A2993 RMK A01 T03570159  RH  031%=      5-min Rain = 0
KBI1 202051Z 17014KT 36/16 A2993 RMK A01 T03570159  RH  031%=      5-min Rain = 0
KBI1 202052Z 16015KT 36/16 A2993 RMK A01 T03570158  RH  031%=      5-min Rain = 0
KBI1 202053Z 16012KT 36/16 A2993 RMK A01 T03560158  RH  031%=      5-min Rain = 0
KBI1 202054Z 16010KT 36/16 A2993 RMK A01 T03570160  RH  031%=      5-min Rain = 0
KBI1 202055Z 16013KT 36/16 A2993 RMK A01 T03600160  RH  030%=      5-min Rain = 0
KBI1 202056Z 17014KT 36/16 A2993 RMK A01 T03610159  RH  030%=      5-min Rain = 0
KBI1 202057Z 18012KT 36/16 A2993 RMK A01 T03610159  RH  030%=      5-min Rain = 0
KBI1 202058Z 16010KT 36/16 A2993 RMK A01 T03620161  RH  030%=      5-min Rain = 0
KBI1 202059Z 17013G19KT 36/16 A2993 RMK A01 T03630160  RH  030%=      5-min Rain = 0
KBI1 202100Z 17013KT 36/16 A2993 RMK A01 T03630156  RH  029%=      5-min Rain = 0
KBI1 202101Z 19013KT 36/16 A2993 RMK A01 T03610155  RH  029%=      5-min Rain = 0
KBI1 202102Z 19011KT 36/16 A2993 RMK A01 T03610158  RH  030%=      5-min Rain = 0
KBI1 202103Z 18012G17KT 36/16 A2992 RMK A01 T03620157  RH  030%=      5-min Rain = 0
KBI1 202104Z 16010G16KT 36/16 A2993 RMK A01 T03630159  RH  030%=      5-min Rain = 0
KBI1 202105Z 17013KT 37/16 A2993 RMK A01 T03650159  RH  029%=      5-min Rain = 0
KBI1 202106Z 18015KT 37/15 A2993 RMK A01 T03650154  RH  029%=      5-min Rain = 0
KBI1 202107Z 18014KT 36/15 A2992 RMK A01 T03620153  RH  029%=      5-min Rain = 0
KBI1 202108Z 19012KT 36/15 A2992 RMK A01 T03600153  RH  029%=      5-min Rain = 0
KBI1 202109Z 18014KT 36/15 A2992 RMK A01 T03590153  RH  029%=      5-min Rain = 0
KBI1 202110Z 17014KT 36/16 A2992 RMK A01 T03600157  RH  030%=      5-min Rain = 0
KBI1 202111Z 17012KT 36/16 A2992 RMK A01 T03630159  RH  030%=      5-min Rain = 0
KBI1 202112Z 18013KT 37/16 A2992 RMK A01 T03660157  RH  029%=      5-min Rain = 0
KBI1 202113Z 17012KT 37/15 A2992 RMK A01 T03660154  RH  029%=      5-min Rain = 0
KBI1 202114Z 15012G18KT 37/16 A2992 RMK A01 T03650156  RH  029%=      5-min Rain = 0
KBI1 202115Z 16016G21KT 37/15 A2992 RMK A01 T03660153  RH  028%=      5-min Rain = 0
KBI1 202116Z 17016KT 36/15 A2992 RMK A01 T03630151  RH  028%=      5-min Rain = 0
KBI1 202117Z 15016KT 36/15 A2992 RMK A01 T03610151  RH  029%=      5-min Rain = 0
KBI1 202118Z 16015KT 36/15 A2992 RMK A01 T03580149  RH  029%=      5-min Rain = 0
KBI1 202119Z 15010G16KT 36/15 A2992 RMK A01 T03560152  RH  030%=      5-min Rain = 0
KBI1 202120Z 16013KT 36/15 A2992 RMK A01 T03580152  RH  029%=      5-min Rain = 0
KBI1 202121Z 16014G20KT 36/15 A2992 RMK A01 T03580149  RH  029%=      5-min Rain = 0
KBI1 202122Z 15015G21KT 36/15 A2992 RMK A01 T03570150  RH  029%=      5-min Rain = 0
KBI1 202123Z 16009G15KT 36/15 A2992 RMK A01 T03570151  RH  029%=      5-min Rain = 0
KBI1 202124Z 14009KT 36/15 A2992 RMK A01 T03590153  RH  029%=      5-min Rain = 0
KBI1 202125Z 16008KT 36/15 A2992 RMK A01 T03600152  RH  029%=      5-min Rain = 0
KBI1 202126Z 17011KT 36/16 A2992 RMK A01 T03600155  RH  029%=      5-min Rain = 0
KBI1 202127Z 18012KT 36/15 A2992 RMK A01 T03630154  RH  029%=      5-min Rain = 0
KBI1 202128Z 17011G16KT 37/16 A2992 RMK A01 T03650156  RH  029%=      5-min Rain = 0
KBI1 202129Z 14009G15KT 37/16 A2992 RMK A01 T03670156  RH  029%=      5-min Rain = 0
KBI1 202130Z 15010KT 37/15 A2992 RMK A01 T03670154  RH  028%=      5-min Rain = 0
KBI1 202131Z 14010G15KT 37/15 A2992 RMK A01 T03650153  RH  029%=      5-min Rain = 0
KBI1 202132Z 14009G14KT 36/15 A2992 RMK A01 T03630153  RH  029%=      5-min Rain = 0
KBI1 202133Z 16013G21KT 36/15 A2992 RMK A01 T03620153  RH  029%=      5-min Rain = 0
KBI1 202134Z 17012KT 36/15 A2992 RMK A01 T03620152  RH  029%=      5-min Rain = 0
KBI1 202135Z 17013G18KT 36/15 A2992 RMK A01 T03620150  RH  028%=      5-min Rain = 0
KBI1 202136Z 16009KT 36/15 A2992 RMK A01 T03620152  RH  029%=      5-min Rain = 0
KBI1 202137Z 16010G15KT 36/16 A2992 RMK A01 T03640155  RH  029%=      5-min Rain = 0
KBI1 202138Z 17012KT 37/15 A2992 RMK A01 T03660151  RH  028%=      5-min Rain = 0
KBI1 202139Z 16013KT 36/15 A2991 RMK A01 T03640151  RH  028%=      5-min Rain = 0
KBI1 202140Z 16011KT 36/15 A2992 RMK A01 T03620152  RH  029%=      5-min Rain = 0
KBI1 202141Z 16012G17KT 36/15 A2991 RMK A01 T03630152  RH  029%=      5-min Rain = 0
KBI1 202142Z 16014KT 36/15 A2992 RMK A01 T03640151  RH  028%=      5-min Rain = 0
KBI1 202143Z 17012KT 36/15 A2992 RMK A01 T03640151  RH  028%=      5-min Rain = 0
KBI1 202144Z 16011KT 36/15 A2992 RMK A01 T03630152  RH  029%=      5-min Rain = 0
KBI1 202145Z 16012KT 36/15 A2992 RMK A01 T03630150  RH  028%=      5-min Rain = 0
KBI1 202146Z 16010KT 36/15 A2992 RMK A01 T03630153  RH  029%=      5-min Rain = 0
KBI1 202147Z 16011KT 37/15 A2991 RMK A01 T03650153  RH  028%=      5-min Rain = 0
KBI1 202148Z 17012KT 37/15 A2992 RMK A01 T03650153  RH  028%=      5-min Rain = 0
KBI1 202149Z 17016KT 37/15 A2991 RMK A01 T03660151  RH  028%=      5-min Rain = 0
KBI1 202150Z 17013KT 37/15 A2991 RMK A01 T03650148  RH  028%=      5-min Rain = 0
KBI1 202151Z 17013KT 36/15 A2991 RMK A01 T03630150  RH  028%=      5-min Rain = 0
KBI1 202152Z 16015KT 36/15 A2991 RMK A01 T03610147  RH  028%=      5-min Rain = 0
KBI1 202153Z 16014KT 36/15 A2991 RMK A01 T03600150  RH  029%=      5-min Rain = 0
KBI1 202154Z 16012KT 36/15 A2991 RMK A01 T03590152  RH  029%=      5-min Rain = 0
KBI1 202155Z 16015KT 36/15 A2991 RMK A01 T03610149  RH  028%=      5-min Rain = 0
KBI1 202156Z 15012KT 36/15 A2991 RMK A01 T03600149  RH  028%=      5-min Rain = 0
KBI1 202157Z 14010KT 36/15 A2991 RMK A01 T03590147  RH  028%=      5-min Rain = 0
KBI1 202158Z 14011KT 36/15 A2991 RMK A01 T03580147  RH  028%=      5-min Rain = 0
KBI1 202159Z 16012G19KT 36/15 A2991 RMK A01 T03570148  RH  029%=      5-min Rain = 0
KBI1 202200Z 17015KT 36/15 A2991 RMK A01 T03580147  RH  028%=      5-min Rain = 0
KBI1 202201Z 17013G18KT 36/15 A2991 RMK A01 T03590150  RH  029%=      5-min Rain = 0
KBI1 202202Z 17016KT 36/15 A2991 RMK A01 T03610148  RH  028%=      5-min Rain = 0
KBI1 202203Z 17015KT 36/15 A2991 RMK A01 T03600146  RH  028%=      5-min Rain = 0
KBI1 202204Z 17016KT 36/15 A2991 RMK A01 T03600147  RH  028%=      5-min Rain = 0
KBI1 202205Z 16013KT 36/14 A2991 RMK A01 T03590144  RH  028%=      5-min Rain = 0
KBI1 202206Z 17011KT 36/14 A2991 RMK A01 T03590144  RH  028%=      5-min Rain = 0
KBI1 202207Z 17011KT 36/15 A2991 RMK A01 T03580146  RH  028%=      5-min Rain = 0
KBI1 202208Z 17012KT 36/15 A2991 RMK A01 T03600147  RH  028%=      5-min Rain = 0
KBI1 202209Z 17012KT 36/15 A2991 RMK A01 T03620150  RH  028%=      5-min Rain = 0
KBI1 202210Z 16014G19KT 36/15 A2991 RMK A01 T03640149  RH  028%=      5-min Rain = 0
KBI1 202211Z 16013G18KT 36/15 A2991 RMK A01 T03640147  RH  027%=      5-min Rain = 0
KBI1 202212Z 17014KT 36/14 A2991 RMK A01 T03620144  RH  027%=      5-min Rain = 0
KBI1 202213Z 16010KT 36/14 A2991 RMK A01 T03600143  RH  027%=      5-min Rain = 0
KBI1 202214Z 17010KT 36/14 A2991 RMK A01 T03600144  RH  028%=      5-min Rain = 0
KBI1 202215Z 17016KT 36/15 A2991 RMK A01 T03610146  RH  028%=      5-min Rain = 0
KBI1 202216Z 16013KT 36/15 A2991 RMK A01 T03620145  RH  027%=      5-min Rain = 0
KBI1 202217Z 16015KT 36/15 A2991 RMK A01 T03620145  RH  027%=      5-min Rain = 0
KBI1 202218Z 17014KT 36/14 A2991 RMK A01 T03610143  RH  027%=      5-min Rain = 0
KBI1 202219Z 17015KT 36/14 A2991 RMK A01 T03590142  RH  027%=      5-min Rain = 0
KBI1 202220Z 16012KT 36/14 A2991 RMK A01 T03590144  RH  028%=      5-min Rain = 0
KBI1 202221Z 17015KT 36/14 A2991 RMK A01 T03590144  RH  028%=      5-min Rain = 0
KBI1 202222Z 17013KT 36/14 A2991 RMK A01 T03600144  RH  028%=      5-min Rain = 0
KBI1 202223Z 18015KT 36/14 A2991 RMK A01 T03610143  RH  027%=      5-min Rain = 0
KBI1 202224Z 17014G21KT 36/14 A2991 RMK A01 T03610143  RH  027%=      5-min Rain = 0
KBI1 202225Z 17016KT 36/14 A2991 RMK A01 T03630144  RH  027%=      5-min Rain = 0
KBI1 202226Z 17014KT 36/14 A2991 RMK A01 T03620142  RH  027%=      5-min Rain = 0
KBI1 202227Z 16012G17KT 36/14 A2991 RMK A01 T03600142  RH  027%=      5-min Rain = 0
KBI1 202228Z 17013KT 36/14 A2991 RMK A01 T03590143  RH  027%=      5-min Rain = 0
KBI1 202229Z 18016G23KT 36/14 A2991 RMK A01 T03590141  RH  027%=      5-min Rain = 0
KBI1 202230Z 17014KT 36/14 A2991 RMK A01 T03600140  RH  027%=      5-min Rain = 0
KBI1 202231Z 17015KT 36/14 A2991 RMK A01 T03590138  RH  027%=      5-min Rain = 0
KBI1 202232Z 16012KT 36/14 A2991 RMK A01 T03580138  RH  027%=      5-min Rain = 0
KBI1 202233Z 15013KT 36/14 A2991 RMK A01 T03570139  RH  027%=      5-min Rain = 0
KBI1 202234Z 16012G19KT 36/14 A2991 RMK A01 T03590138  RH  027%=      5-min Rain = 0
KBI1 202235Z 17013KT 36/14 A2991 RMK A01 T03590139  RH  027%=      5-min Rain = 0
KBI1 202236Z 17011G16KT 36/14 A2991 RMK A01 T03600139  RH  027%=      5-min Rain = 0
KBI1 202237Z 17012KT 36/14 A299 RMK A01 T03590138  RH  027%=      5-min Rain = 0
KBI1 202238Z 16012KT 36/14 A299 RMK A01 T03590138  RH  027%=      5-min Rain = 0
KBI1 202239Z 17010G15KT 36/14 A299 RMK A01 T03590139  RH  027%=      5-min Rain = 0
KBI1 202240Z 17012KT 36/14 A299 RMK A01 T03600139  RH  027%=      5-min Rain = 0
KBI1 202241Z 17013KT 36/14 A299 RMK A01 T03610140  RH  027%=      5-min Rain = 0
KBI1 202242Z 16008KT 36/14 A299 RMK A01 T03620140  RH  027%=      5-min Rain = 0
KBI1 202243Z 16011KT 36/14 A299 RMK A01 T03630139  RH  026%=      5-min Rain = 0
KBI1 202244Z 16010KT 36/14 A299 RMK A01 T03640138  RH  026%=      5-min Rain = 0
KBI1 202245Z 15008G13KT 36/14 A299 RMK A01 T03630138  RH  026%=      5-min Rain = 0
KBI1 202246Z 15011KT 36/14 A299 RMK A01 T03630140  RH  026%=      5-min Rain = 0
KBI1 202247Z 15012KT 36/14 A299 RMK A01 T03630136  RH  026%=      5-min Rain = 0
KBI1 202248Z 15010KT 36/14 A299 RMK A01 T03610135  RH  026%=      5-min Rain = 0
KBI1 202249Z 15009KT 36/14 A299 RMK A01 T03600135  RH  026%=      5-min Rain = 0
KBI1 202250Z 16012KT 36/14 A299 RMK A01 T03600136  RH  026%=      5-min Rain = 0
KBI1 202251Z 15011KT 36/13 A299 RMK A01 T03600133  RH  026%=      5-min Rain = 0
KBI1 202252Z 17010KT 36/13 A299 RMK A01 T03590133  RH  026%=      5-min Rain = 0
KBI1 202253Z 16009KT 36/13 A299 RMK A01 T03590133  RH  026%=      5-min Rain = 0
KBI1 202254Z 17008KT 36/14 A299 RMK A01 T03590137  RH  026%=      5-min Rain = 0
KBI1 202255Z 17013KT 36/14 A299 RMK A01 T03610136  RH  026%=      5-min Rain = 0
KBI1 202256Z 18011KT 36/13 A299 RMK A01 T03610134  RH  026%=      5-min Rain = 0
KBI1 202257Z 15009G16KT 36/14 A299 RMK A01 T03600137  RH  026%=      5-min Rain = 0
KBI1 202258Z 16015KT 36/13 A299 RMK A01 T03610134  RH  026%=      5-min Rain = 0
KBI1 202259Z 17013KT 36/13 A299 RMK A01 T03600132  RH  026%=      5-min Rain = 0
KBI1 202300Z 17013KT 36/13 A299 RMK A01 T03590134  RH  026%=      5-min Rain = 0
KBI1 202301Z 17012KT 36/13 A299 RMK A01 T03600133  RH  026%=      5-min Rain = 0
KBI1 202302Z 17011G16KT 36/13 A299 RMK A01 T03610134  RH  026%=      5-min Rain = 0
KBI1 202303Z 17010KT 36/13 A299 RMK A01 T03610132  RH  025%=      5-min Rain = 0
KBI1 202304Z 16010KT 36/13 A299 RMK A01 T03600132  RH  025%=      5-min Rain = 0
KBI1 202305Z 15010KT 36/13 A299 RMK A01 T03590132  RH  026%=      5-min Rain = 0
KBI1 202306Z 17010G15KT 36/14 A299 RMK A01 T03590137  RH  026%=      5-min Rain = 0
KBI1 202307Z 17015KT 36/14 A299 RMK A01 T03600135  RH  026%=      5-min Rain = 0
KBI1 202308Z 17011G16KT 36/13 A299 RMK A01 T03590132  RH  026%=      5-min Rain = 0
KBI1 202309Z 17011KT 36/13 A299 RMK A01 T03590133  RH  026%=      5-min Rain = 0
KBI1 202310Z 17010KT 36/13 A299 RMK A01 T03590132  RH  026%=      5-min Rain = 0
KBI1 202311Z 16011KT 36/13 A299 RMK A01 T03590134  RH  026%=      5-min Rain = 0
KBI1 202312Z 16013KT 36/13 A299 RMK A01 T03590132  RH  026%=      5-min Rain = 0
KBI1 202313Z 16011KT 36/13 A299 RMK A01 T03580132  RH  026%=      5-min Rain = 0
KBI1 202314Z 16008KT 36/13 A299 RMK A01 T03570132  RH  026%=      5-min Rain = 0
KBI1 202315Z 17009KT 36/13 A299 RMK A01 T03570134  RH  026%=      5-min Rain = 0
KBI1 202316Z 17011KT 36/13 A299 RMK A01 T03580134  RH  026%=      5-min Rain = 0
KBI1 202317Z 17011G16KT 36/13 A299 RMK A01 T03590134  RH  026%=      5-min Rain = 0
KBI1 202318Z 16011KT 36/14 A299 RMK A01 T03610135  RH  026%=      5-min Rain = 0
KBI1 202319Z 17012KT 36/13 A299 RMK A01 T03610132  RH  025%=      5-min Rain = 0
KBI1 202320Z 17009KT 36/13 A299 RMK A01 T03600132  RH  026%=      5-min Rain = 0
KBI1 202321Z 17010KT 36/13 A299 RMK A01 T03590134  RH  026%=      5-min Rain = 0
KBI1 202322Z 17012KT 36/13 A299 RMK A01 T03590133  RH  026%=      5-min Rain = 0
KBI1 202323Z 17009KT 36/14 A299 RMK A01 T03590136  RH  026%=      5-min Rain = 0
KBI1 202324Z 17011G17KT 36/14 A299 RMK A01 T03600135  RH  026%=      5-min Rain = 0
KBI1 202325Z 17012KT 36/14 A299 RMK A01 T03610135  RH  026%=      5-min Rain = 0
KBI1 202326Z 17011KT 36/13 A2989 RMK A01 T03600131  RH  025%=      5-min Rain = 0
KBI1 202327Z 18012KT 36/13 A2989 RMK A01 T03580133  RH  026%=      5-min Rain = 0
KBI1 202328Z 17011KT 36/13 A2989 RMK A01 T03580131  RH  026%=      5-min Rain = 0
KBI1 202329Z 16012KT 36/13 A2989 RMK A01 T03580131  RH  026%=      5-min Rain = 0
KBI1 202330Z 16013KT 36/13 A2989 RMK A01 T03570128  RH  025%=      5-min Rain = 0
KBI1 202331Z 16013KT 36/13 A2989 RMK A01 T03560128  RH  025%=      5-min Rain = 0
KBI1 202332Z 17012KT 36/13 A2989 RMK A01 T03550128  RH  025%=      5-min Rain = 0
KBI1 202333Z 17012KT 36/13 A2989 RMK A01 T03560130  RH  026%=      5-min Rain = 0
KBI1 202334Z 16011KT 36/13 A2989 RMK A01 T03560130  RH  026%=      5-min Rain = 0
KBI1 202335Z 17009KT 36/13 A2989 RMK A01 T03560130  RH  026%=      5-min Rain = 0
KBI1 202336Z 14010G17KT 36/13 A2989 RMK A01 T03550132  RH  026%=      5-min Rain = 0
KBI1 202337Z 16011KT 36/13 A2989 RMK A01 T03560134  RH  026%=      5-min Rain = 0
KBI1 202338Z 16013KT 36/13 A2989 RMK A01 T03570131  RH  026%=      5-min Rain = 0
KBI1 202339Z 16012KT 36/13 A2989 RMK A01 T03560128  RH  025%=      5-min Rain = 0
KBI1 202340Z 16010KT 36/13 A2989 RMK A01 T03550128  RH  026%=      5-min Rain = 0
KBI1 202341Z 16010KT 35/13 A2989 RMK A01 T03540127  RH  025%=      5-min Rain = 0
KBI1 202342Z 16011KT 35/13 A2989 RMK A01 T03540127  RH  025%=      5-min Rain = 0
KBI1 202343Z 17011KT 35/13 A2989 RMK A01 T03540127  RH  026%=      5-min Rain = 0
KBI1 202344Z 17010KT 36/13 A2989 RMK A01 T03550131  RH  026%=      5-min Rain = 0
KBI1 202345Z 17013KT 36/13 A2989 RMK A01 T03550130  RH  026%=      5-min Rain = 0
KBI1 202346Z 16009KT 36/13 A2989 RMK A01 T03550131  RH  026%=      5-min Rain = 0
KBI1 202347Z 15010KT 36/13 A2989 RMK A01 T03550131  RH  026%=      5-min Rain = 0
KBI1 202348Z 15011KT 36/13 A2989 RMK A01 T03560127  RH  025%=      5-min Rain = 0
KBI1 202349Z 15012KT 35/13 A2989 RMK A01 T03540126  RH  025%=      5-min Rain = 0
KBI1 202350Z 15007G13KT 35/13 A2989 RMK A01 T03540127  RH  026%=      5-min Rain = 0
KBI1 202351Z 16010KT 35/13 A2989 RMK A01 T03540128  RH  026%=      5-min Rain = 0
KBI1 202352Z 16013KT 35/13 A2989 RMK A01 T03540129  RH  026%=      5-min Rain = 0
KBI1 202353Z 18014KT 35/13 A2989 RMK A01 T03540129  RH  026%=      5-min Rain = 0
KBI1 202354Z 18012KT 35/13 A2989 RMK A01 T03530128  RH  026%=      5-min Rain = 0
KBI1 202355Z 18012KT 35/13 A2989 RMK A01 T03530129  RH  026%=      5-min Rain = 0
KBI1 202356Z 18012KT 35/13 A2989 RMK A01 T03530128  RH  026%=      5-min Rain = 0
KBI1 202357Z 17012KT 35/13 A2989 RMK A01 T03530130  RH  026%=      5-min Rain = 0
KBI1 202358Z 16010G15KT 35/13 A2989 RMK A01 T03530131  RH  026%=      5-min Rain = 0
KBI1 202359Z 15011KT 35/13 A2989 RMK A01 T03530130  RH  026%=      5-min Rain = 0
KBI1 210000Z 15013KT 35/13 A2989 RMK A01 T03530127  RH  026%=      5-min Rain = 0
KBI1 210001Z 15012KT 35/13 A2989 RMK A01 T03520125  RH  025%=      5-min Rain = 0
KBI1 210002Z 17012KT 35/13 A2989 RMK A01 T03510128  RH  026%=      5-min Rain = 0
KBI1 210003Z 17014KT 35/13 A2989 RMK A01 T03510129  RH  026%=      5-min Rain = 0
KBI1 210004Z 17011KT 35/13 A2989 RMK A01 T03510129  RH  026%=      5-min Rain = 0
KBI1 210005Z 16010KT 35/13 A2989 RMK A01 T03510131  RH  027%=      5-min Rain = 0
KBI1 210006Z 15010KT 35/13 A2989 RMK A01 T03520130  RH  026%=      5-min Rain = 0
KBI1 210007Z 16012KT 35/13 A2989 RMK A01 T03520129  RH  026%=      5-min Rain = 0
KBI1 210008Z 17012KT 35/13 A2989 RMK A01 T03510130  RH  026%=      5-min Rain = 0
KBI1 210009Z 16010KT 35/13 A2989 RMK A01 T03510129  RH  026%=      5-min Rain = 0
KBI1 210010Z 15011KT 35/13 A2989 RMK A01 T03500129  RH  026%=      5-min Rain = 0
KBI1 210011Z 16013KT 35/13 A2989 RMK A01 T03500128  RH  026%=      5-min Rain = 0
KBI1 210012Z 16011KT 35/13 A2989 RMK A01 T03500127  RH  026%=      5-min Rain = 0
KBI1 210013Z 16010G15KT 35/13 A2989 RMK A01 T03500127  RH  026%=      5-min Rain = 0
KBI1 210014Z 16010KT 35/13 A2989 RMK A01 T03490127  RH  026%=      5-min Rain = 0
KBI1 210015Z 15009G14KT 35/13 A299 RMK A01 T03490128  RH  026%=      5-min Rain = 0
KBI1 210016Z 15010KT 35/13 A299 RMK A01 T03490128  RH  026%=      5-min Rain = 0
KBI1 210017Z 16008G13KT 35/13 A299 RMK A01 T03490129  RH  026%=      5-min Rain = 0
KBI1 210018Z 16008G13KT 35/13 A299 RMK A01 T03490130  RH  027%=      5-min Rain = 0
KBI1 210019Z 16013G18KT 35/13 A299 RMK A01 T03500129  RH  026%=      5-min Rain = 0
KBI1 210020Z 16011KT 35/13 A299 RMK A01 T03490128  RH  026%=      5-min Rain = 0
KBI1 210021Z 17014KT 35/13 A299 RMK A01 T03480128  RH  026%=      5-min Rain = 0
KBI1 210022Z 16012KT 35/13 A299 RMK A01 T03480129  RH  027%=      5-min Rain = 0
KBI1 210023Z 16012KT 35/13 A299 RMK A01 T03480128  RH  027%=      5-min Rain = 0
KBI1 210024Z 16009KT 35/13 A299 RMK A01 T03470129  RH  027%=      5-min Rain = 0
KBI1 210025Z 16011KT 35/13 A299 RMK A01 T03470128  RH  027%=      5-min Rain = 0
KBI1 210026Z 16011KT 35/13 A299 RMK A01 T03470129  RH  027%=      5-min Rain = 0
KBI1 210027Z 16012KT 35/13 A299 RMK A01 T03470128  RH  027%=      5-min Rain = 0
KBI1 210028Z 16012KT 35/13 A299 RMK A01 T03470130  RH  027%=      5-min Rain = 0
KBI1 210029Z 17011KT 35/13 A299 RMK A01 T03470131  RH  027%=      5-min Rain = 0
KBI1 210030Z 17010KT 35/13 A299 RMK A01 T03470132  RH  027%=      5-min Rain = 0
KBI1 210031Z 14007KT 35/13 A299 RMK A01 T03460133  RH  028%=      5-min Rain = 0
KBI1 210032Z 15008KT 35/13 A299 RMK A01 T03460132  RH  028%=      5-min Rain = 0
KBI1 210033Z 15010KT 35/13 A299 RMK A01 T03470132  RH  027%=      5-min Rain = 0
KBI1 210034Z 16012KT 35/13 A299 RMK A01 T03470132  RH  027%=      5-min Rain = 0
KBI1 210035Z 15011KT 35/13 A299 RMK A01 T03460132  RH  027%=      5-min Rain = 0
KBI1 210036Z 15011G16KT 35/13 A299 RMK A01 T03460133  RH  028%=      5-min Rain = 0
KBI1 210037Z 16011KT 35/13 A299 RMK A01 T03460132  RH  028%=      5-min Rain = 0
KBI1 210038Z 17012KT 35/13 A299 RMK A01 T03450133  RH  028%=      5-min Rain = 0
KBI1 210039Z 16013G18KT 35/13 A299 RMK A01 T03450133  RH  028%=      5-min Rain = 0
KBI1 210040Z 16013KT 34/13 A299 RMK A01 T03440132  RH  028%=      5-min Rain = 0
KBI1 210041Z 16014KT 34/13 A299 RMK A01 T03440133  RH  028%=      5-min Rain = 0
KBI1 210042Z 17013KT 34/13 A299 RMK A01 T03430134  RH  028%=      5-min Rain = 0
KBI1 210043Z 16010G15KT 34/13 A299 RMK A01 T03430134  RH  028%=      5-min Rain = 0
KBI1 210044Z 17014KT 34/13 A299 RMK A01 T03430133  RH  028%=      5-min Rain = 0
KBI1 210045Z 17013KT 34/13 A299 RMK A01 T03420133  RH  028%=      5-min Rain = 0
KBI1 210046Z 17013G18KT 34/13 A299 RMK A01 T03420133  RH  028%=      5-min Rain = 0
KBI1 210047Z 17014KT 34/13 A299 RMK A01 T03420133  RH  028%=      5-min Rain = 0
KBI1 210048Z 17010KT 34/13 A299 RMK A01 T03410133  RH  029%=      5-min Rain = 0
KBI1 210049Z 17011KT 34/14 A299 RMK A01 T03410135  RH  029%=      5-min Rain = 0
KBI1 210050Z 17014KT 34/13 A299 RMK A01 T03410134  RH  029%=      5-min Rain = 0
KBI1 210051Z 18012KT 34/13 A299 RMK A01 T03400134  RH  029%=      5-min Rain = 0
KBI1 210052Z 17010KT 34/13 A299 RMK A01 T03410134  RH  029%=      5-min Rain = 0
KBI1 210053Z 17010KT 34/14 A299 RMK A01 T03400135  RH  029%=      5-min Rain = 0
KBI1 210054Z 16010KT 34/14 A299 RMK A01 T03400136  RH  029%=      5-min Rain = 0
KBI1 210055Z 16012KT 34/14 A299 RMK A01 T03400136  RH  029%=      5-min Rain = 0
KBI1 210056Z 16009KT 34/14 A299 RMK A01 T03390137  RH  029%=      5-min Rain = 0
KBI1 210057Z 17008KT 34/14 A299 RMK A01 T03390137  RH  030%=      5-min Rain = 0
KBI1 210058Z 16008KT 34/14 A299 RMK A01 T03390138  RH  030%=      5-min Rain = 0
KBI1 210059Z 17010KT 34/14 A299 RMK A01 T03390137  RH  030%=      5-min Rain = 0
KBI1 210100Z 17008KT 34/14 A299 RMK A01 T03390137  RH  030%=      5-min Rain = 0
KBI1 210101Z 16009KT 34/14 A299 RMK A01 T03380138  RH  030%=      5-min Rain = 0
KBI1 210102Z 16009KT 34/14 A299 RMK A01 T03380137  RH  030%=      5-min Rain = 0
KBI1 210103Z 16008KT 34/14 A299 RMK A01 T03380138  RH  030%=      5-min Rain = 0
KBI1 210104Z 16007KT 34/14 A299 RMK A01 T03380138  RH  030%=      5-min Rain = 0
KBI1 210105Z 16011KT 34/14 A2991 RMK A01 T03370138  RH  030%=      5-min Rain = 0
KBI1 210106Z 16010KT 34/14 A2991 RMK A01 T03360135  RH  030%=      5-min Rain = 0
KBI1 210107Z 16009KT 34/14 A2991 RMK A01 T03360135  RH  030%=      5-min Rain = 0
KBI1 210108Z 17009KT 34/14 A2991 RMK A01 T03360135  RH  030%=      5-min Rain = 0
KBI1 210109Z 17011KT 34/14 A2991 RMK A01 T03360136  RH  030%=      5-min Rain = 0
KBI1 210110Z 17010KT 34/14 A2991 RMK A01 T03350135  RH  030%=      5-min Rain = 0
KBI1 210111Z 17012KT 34/13 A2991 RMK A01 T03350134  RH  030%=      5-min Rain = 0
KBI1 210112Z 17011KT 34/14 A2991 RMK A01 T03350135  RH  030%=      5-min Rain = 0
KBI1 210113Z 17009KT 33/13 A2991 RMK A01 T03340134  RH  030%=      5-min Rain = 0
KBI1 210114Z 17008KT 33/14 A2991 RMK A01 T03340135  RH  030%=      5-min Rain = 0
KBI1 210115Z 17008KT 33/14 A2991 RMK A01 T03330135  RH  030%=      5-min Rain = 0
KBI1 210116Z 17010KT 33/14 A2991 RMK A01 T03330135  RH  030%=      5-min Rain = 0
KBI1 210117Z 17011KT 33/13 A2991 RMK A01 T03320134  RH  030%=      5-min Rain = 0
KBI1 210118Z 17014KT 33/13 A2991 RMK A01 T03320134  RH  030%=      5-min Rain = 0
KBI1 210119Z 17013KT 33/13 A2991 RMK A01 T03320133  RH  030%=      5-min Rain = 0
KBI1 210120Z 17012KT 33/13 A2991 RMK A01 T03320133  RH  030%=      5-min Rain = 0
KBI1 210121Z 17012KT 33/13 A2991 RMK A01 T03320132  RH  030%=      5-min Rain = 0
KBI1 210122Z 17013KT 33/13 A2991 RMK A01 T03320132  RH  030%=      5-min Rain = 0
KBI1 210123Z 17012KT 33/13 A2991 RMK A01 T03320131  RH  030%=      5-min Rain = 0
KBI1 210124Z 17012KT 33/13 A2991 RMK A01 T03310131  RH  030%=      5-min Rain = 0
KBI1 210125Z 17011KT 33/13 A2991 RMK A01 T03300132  RH  030%=      5-min Rain = 0
KBI1 210126Z 17011KT 33/13 A2991 RMK A01 T03300132  RH  030%=      5-min Rain = 0
KBI1 210127Z 17010KT 33/13 A2992 RMK A01 T03290132  RH  030%=      5-min Rain = 0
KBI1 210128Z 17011KT 33/13 A2992 RMK A01 T03290132  RH  030%=      5-min Rain = 0
KBI1 210129Z 17010KT 33/13 A2992 RMK A01 T03290132  RH  030%=      5-min Rain = 0
KBI1 210130Z 16008KT 33/13 A2992 RMK A01 T03280132  RH  030%=      5-min Rain = 0
KBI1 210131Z 18009G14KT 33/13 A2992 RMK A01 T03270132  RH  031%=      5-min Rain = 0
KBI1 210132Z 17010KT 33/13 A2992 RMK A01 T03260131  RH  031%=      5-min Rain = 0
KBI1 210133Z 17009KT 33/13 A2992 RMK A01 T03270132  RH  031%=      5-min Rain = 0
KBI1 210134Z 17009KT 33/13 A2992 RMK A01 T03260132  RH  031%=      5-min Rain = 0
KBI1 210135Z 17008KT 33/13 A2992 RMK A01 T03250132  RH  031%=      5-min Rain = 0
KBI1 210136Z 17008KT 32/13 A2992 RMK A01 T03240132  RH  031%=      5-min Rain = 0
KBI1 210137Z 17007KT 32/13 A2992 RMK A01 T03230132  RH  031%=      5-min Rain = 0
KBI1 210138Z 17008KT 32/13 A2992 RMK A01 T03220132  RH  031%=      5-min Rain = 0
KBI1 210139Z 17008KT 32/13 A2992 RMK A01 T03210132  RH  032%=      5-min Rain = 0
KBI1 210140Z 17009KT 32/13 A2992 RMK A01 T03210132  RH  032%=      5-min Rain = 0
KBI1 210141Z 17009KT 32/13 A2992 RMK A01 T03200132  RH  032%=      5-min Rain = 0
KBI1 210142Z 17009KT 32/13 A2992 RMK A01 T03200132  RH  032%=      5-min Rain = 0
KBI1 210143Z 17008KT 32/13 A2992 RMK A01 T03200133  RH  032%=      5-min Rain = 0
KBI1 210144Z 17008KT 32/13 A2992 RMK A01 T03200133  RH  032%=      5-min Rain = 0
KBI1 210145Z 17009KT 32/13 A2992 RMK A01 T03190133  RH  032%=      5-min Rain = 0
KBI1 210146Z 16007KT 32/13 A2992 RMK A01 T03180134  RH  032%=      5-min Rain = 0
KBI1 210147Z 16008KT 32/13 A2992 RMK A01 T03180134  RH  033%=      5-min Rain = 0
KBI1 210148Z 16007KT 32/14 A2992 RMK A01 T03180135  RH  033%=      5-min Rain = 0
KBI1 210149Z 16008KT 32/14 A2992 RMK A01 T03180135  RH  033%=      5-min Rain = 0
KBI1 210150Z 16007KT 32/14 A2992 RMK A01 T03170135  RH  033%=      5-min Rain = 0
KBI1 210151Z 16009KT 32/14 A2992 RMK A01 T03170135  RH  033%=      5-min Rain = 0
KBI1 210152Z 16006KT 32/14 A2992 RMK A01 T03170135  RH  033%=      5-min Rain = 0
KBI1 210153Z 16007KT 32/14 A2992 RMK A01 T03160135  RH  033%=      5-min Rain = 0
KBI1 210154Z 16008KT 32/14 A2992 RMK A01 T03160135  RH  033%=      5-min Rain = 0
KBI1 210155Z 15007KT 32/14 A2992 RMK A01 T03150135  RH  033%=      5-min Rain = 0
KBI1 210156Z 16006KT 32/14 A2992 RMK A01 T03150135  RH  034%=      5-min Rain = 0
KBI1 210157Z 16006KT 31/14 A2992 RMK A01 T03140136  RH  034%=      5-min Rain = 0
KBI1 210158Z 16006KT 31/14 A2992 RMK A01 T03120135  RH  034%=      5-min Rain = 0
KBI1 210159Z 15006KT 31/14 A2992 RMK A01 T03120136  RH  034%=      5-min Rain = 0
KBI1 210200Z 15007KT 31/14 A2992 RMK A01 T03110136  RH  034%=      5-min Rain = 0
KBI1 210201Z 16006KT 31/14 A2992 RMK A01 T03100135  RH  035%=      5-min Rain = 0
KBI1 210202Z 16007KT 31/14 A2992 RMK A01 T03090136  RH  035%=      5-min Rain = 0
KBI1 210203Z 15006KT 31/14 A2992 RMK A01 T03080136  RH  035%=      5-min Rain = 0
KBI1 210204Z 16007KT 31/14 A2992 RMK A01 T03090136  RH  035%=      5-min Rain = 0
KBI1 210205Z 15006KT 31/14 A2992 RMK A01 T03080136  RH  035%=      5-min Rain = 0
KBI1 210206Z 16006KT 31/14 A2992 RMK A01 T03080137  RH  035%=      5-min Rain = 0
KBI1 210207Z 16005KT 31/14 A2992 RMK A01 T03080137  RH  035%=      5-min Rain = 0
KBI1 210208Z 16006KT 31/14 A2992 RMK A01 T03070137  RH  035%=      5-min Rain = 0
KBI1 210209Z 15006KT 31/14 A2992 RMK A01 T03060136  RH  036%=      5-min Rain = 0
KBI1 210210Z 16005KT 31/14 A2992 RMK A01 T03050136  RH  036%=      5-min Rain = 0
KBI1 210211Z 16006KT 31/14 A2992 RMK A01 T03050136  RH  036%=      5-min Rain = 0
KBI1 210212Z 16007KT 30/14 A2992 RMK A01 T03040135  RH  036%=      5-min Rain = 0
KBI1 210213Z 16006KT 30/13 A2992 RMK A01 T03040134  RH  035%=      5-min Rain = 0
KBI1 210214Z 15006KT 30/13 A2992 RMK A01 T03040133  RH  035%=      5-min Rain = 0
KBI1 210215Z 16006KT 30/13 A2992 RMK A01 T03040133  RH  035%=      5-min Rain = 0
KBI1 210216Z 16006KT 30/13 A2992 RMK A01 T03040133  RH  035%=      5-min Rain = 0
KBI1 210217Z 16008KT 30/13 A2992 RMK A01 T03040133  RH  035%=      5-min Rain = 0
KBI1 210218Z 15008KT 30/13 A2992 RMK A01 T03040132  RH  035%=      5-min Rain = 0
KBI1 210219Z 16007KT 30/13 A2992 RMK A01 T03040132  RH  035%=      5-min Rain = 0
KBI1 210220Z 16007KT 30/13 A2992 RMK A01 T03040132  RH  035%=      5-min Rain = 0
KBI1 210221Z 16008KT 30/13 A2992 RMK A01 T03030132  RH  035%=      5-min Rain = 0
KBI1 210222Z 16008KT 30/13 A2992 RMK A01 T03030132  RH  035%=      5-min Rain = 0
KBI1 210223Z 16008KT 30/13 A2992 RMK A01 T03030131  RH  035%=      5-min Rain = 0
KBI1 210224Z 16006KT 30/13 A2992 RMK A01 T03030132  RH  035%=      5-min Rain = 0
KBI1 210225Z 16007KT 30/13 A2992 RMK A01 T03020132  RH  035%=      5-min Rain = 0
KBI1 210226Z 16006KT 30/13 A2992 RMK A01 T03020132  RH  035%=      5-min Rain = 0
KBI1 210227Z 16007KT 30/13 A2992 RMK A01 T03020131  RH  035%=      5-min Rain = 0
KBI1 210228Z 16007KT 30/13 A2992 RMK A01 T03020131  RH  035%=      5-min Rain = 0
KBI1 210229Z 15006KT 30/13 A2992 RMK A01 T03020131  RH  035%=      5-min Rain = 0
KBI1 210230Z 16006KT 30/13 A2992 RMK A01 T03010131  RH  035%=      5-min Rain = 0
KBI1 210231Z 15007KT 30/13 A2992 RMK A01 T03000131  RH  035%=      5-min Rain = 0
KBI1 210232Z 15006KT 30/13 A2993 RMK A01 T03000131  RH  035%=      5-min Rain = 0
KBI1 210233Z 16007KT 30/13 A2993 RMK A01 T03000131  RH  035%=      5-min Rain = 0
KBI1 210234Z 16007KT 30/13 A2993 RMK A01 T03000131  RH  036%=      5-min Rain = 0
KBI1 210235Z 15006KT 30/13 A2993 RMK A01 T03000131  RH  036%=      5-min Rain = 0
KBI1 210236Z 16006KT 30/13 A2993 RMK A01 T02990130  RH  036%=      5-min Rain = 0
KBI1 210237Z 16007KT 30/13 A2993 RMK A01 T02990131  RH  036%=      5-min Rain = 0
KBI1 210238Z 15007KT 30/13 A2993 RMK A01 T02990130  RH  035%=      5-min Rain = 0
KBI1 210239Z 16007KT 30/13 A2993 RMK A01 T02990130  RH  035%=      5-min Rain = 0
KBI1 210240Z 16006KT 30/13 A2992 RMK A01 T02990130  RH  035%=      5-min Rain = 0
KBI1 210241Z 15006KT 30/13 A2993 RMK A01 T02980130  RH  036%=      5-min Rain = 0
KBI1 210242Z 16008KT 30/13 A2993 RMK A01 T02970130  RH  036%=      5-min Rain = 0
KBI1 210243Z 16006KT 30/13 A2993 RMK A01 T02970130  RH  036%=      5-min Rain = 0
KBI1 210244Z 15007KT 30/13 A2993 RMK A01 T02970130  RH  036%=      5-min Rain = 0
KBI1 210245Z 16007KT 30/13 A2993 RMK A01 T02960129  RH  036%=      5-min Rain = 0
KBI1 210246Z 16007KT 30/13 A2993 RMK A01 T02960130  RH  036%=      5-min Rain = 0
KBI1 210247Z 16007G12KT 30/13 A2993 RMK A01 T02950129  RH  036%=      5-min Rain = 0
KBI1 210248Z 16007KT 30/13 A2993 RMK A01 T02950129  RH  036%=      5-min Rain = 0
KBI1 210249Z 16007KT 29/13 A2993 RMK A01 T02940129  RH  036%=      5-min Rain = 0
KBI1 210250Z 16008KT 29/13 A2993 RMK A01 T02940129  RH  036%=      5-min Rain = 0
KBI1 210251Z 16007KT 29/13 A2993 RMK A01 T02940129  RH  036%=      5-min Rain = 0
KBI1 210252Z 16008KT 29/13 A2993 RMK A01 T02940129  RH  036%=      5-min Rain = 0
KBI1 210253Z 16007KT 29/13 A2993 RMK A01 T02940129  RH  036%=      5-min Rain = 0
KBI1 210254Z 15007KT 29/13 A2993 RMK A01 T02940129  RH  036%=      5-min Rain = 0
KBI1 210255Z 16006KT 29/13 A2993 RMK A01 T02940129  RH  036%=      5-min Rain = 0
KBI1 210256Z 15007KT 29/13 A2993 RMK A01 T02930129  RH  036%=      5-min Rain = 0
KBI1 210257Z 16006KT 29/13 A2993 RMK A01 T02930129  RH  036%=      5-min Rain = 0
KBI1 210258Z 16007KT 29/13 A2993 RMK A01 T02930129  RH  036%=      5-min Rain = 0
KBI1 210259Z 16008KT 29/13 A2993 RMK A01 T02920129  RH  036%=      5-min Rain = 0
KBI1 210300Z 16008KT 29/13 A2993 RMK A01 T02920128  RH  036%=      5-min Rain = 0
KBI1 210301Z 16007KT 29/13 A2993 RMK A01 T02920128  RH  036%=      5-min Rain = 0
KBI1 210302Z 15008KT 29/13 A2993 RMK A01 T02920128  RH  036%=      5-min Rain = 0
KBI1 210303Z 16008KT 29/13 A2993 RMK A01 T02920128  RH  036%=      5-min Rain = 0
KBI1 210304Z 16007KT 29/13 A2993 RMK A01 T02920127  RH  036%=      5-min Rain = 0
KBI1 210305Z 16008KT 29/13 A2993 RMK A01 T02920128  RH  036%=      5-min Rain = 0
KBI1 210306Z 16008KT 29/13 A2993 RMK A01 T02910127  RH  036%=      5-min Rain = 0
KBI1 210307Z 16008KT 29/13 A2993 RMK A01 T02910127  RH  037%=      5-min Rain = 0
KBI1 210308Z 16008KT 29/13 A2993 RMK A01 T02900128  RH  037%=      5-min Rain = 0
KBI1 210309Z 16009KT 29/13 A2993 RMK A01 T02890127  RH  037%=      5-min Rain = 0
KBI1 210310Z 16007KT 29/13 A2993 RMK A01 T02890128  RH  037%=      5-min Rain = 0
KBI1 210311Z 16009KT 29/13 A2993 RMK A01 T02880128  RH  037%=      5-min Rain = 0
KBI1 210312Z 16009KT 29/13 A2993 RMK A01 T02870127  RH  037%=      5-min Rain = 0
KBI1 210313Z 16009KT 29/13 A2993 RMK A01 T02870128  RH  037%=      5-min Rain = 0
KBI1 210314Z 16009KT 29/13 A2993 RMK A01 T02870128  RH  037%=      5-min Rain = 0
KBI1 210315Z 16009KT 29/13 A2993 RMK A01 T02870128  RH  037%=      5-min Rain = 0
KBI1 210316Z 16010KT 29/13 A2993 RMK A01 T02870127  RH  037%=      5-min Rain = 0
KBI1 210317Z 16010KT 29/13 A2993 RMK A01 T02870127  RH  037%=      5-min Rain = 0
KBI1 210318Z 16010KT 29/13 A2993 RMK A01 T02860127  RH  037%=      5-min Rain = 0
KBI1 210319Z 16010KT 29/13 A2993 RMK A01 T02860127  RH  037%=      5-min Rain = 0
KBI1 210320Z 16009KT 29/13 A2993 RMK A01 T02860127  RH  037%=      5-min Rain = 0
KBI1 210321Z 16009KT 29/13 A2993 RMK A01 T02850127  RH  038%=      5-min Rain = 0
KBI1 210322Z 16009KT 29/13 A2993 RMK A01 T02850127  RH  038%=      5-min Rain = 0
KBI1 210323Z 16009KT 28/13 A2993 RMK A01 T02830127  RH  038%=      5-min Rain = 0
KBI1 210324Z 16009KT 28/13 A2993 RMK A01 T02830127  RH  038%=      5-min Rain = 0
KBI1 210325Z 16008KT 28/13 A2993 RMK A01 T02820127  RH  038%=      5-min Rain = 0
KBI1 210326Z 16009KT 28/13 A2993 RMK A01 T02820127  RH  039%=      5-min Rain = 0
KBI1 210327Z 16008KT 28/13 A2993 RMK A01 T02810127  RH  039%=      5-min Rain = 0
KBI1 210328Z 16010KT 28/13 A2993 RMK A01 T02800127  RH  039%=      5-min Rain = 0
KBI1 210329Z 16008KT 28/13 A2994 RMK A01 T02800127  RH  039%=      5-min Rain = 0
KBI1 210330Z 16008KT 28/13 A2994 RMK A01 T02800127  RH  039%=      5-min Rain = 0
KBI1 210331Z 16008KT 28/13 A2994 RMK A01 T02790127  RH  039%=      5-min Rain = 0
KBI1 210332Z 16007KT 28/13 A2994 RMK A01 T02790127  RH  039%=      5-min Rain = 0
KBI1 210333Z 16008KT 28/13 A2994 RMK A01 T02790127  RH  039%=      5-min Rain = 0
KBI1 210334Z 16007KT 28/13 A2994 RMK A01 T02790127  RH  039%=      5-min Rain = 0
KBI1 210335Z 16008KT 28/13 A2994 RMK A01 T02790126  RH  039%=      5-min Rain = 0
KBI1 210336Z 16007KT 28/13 A2994 RMK A01 T02790126  RH  039%=      5-min Rain = 0
KBI1 210337Z 16008KT 28/13 A2994 RMK A01 T02780126  RH  039%=      5-min Rain = 0
KBI1 210338Z 16008KT 28/13 A2994 RMK A01 T02780126  RH  039%=      5-min Rain = 0
KBI1 210339Z 16008KT 28/13 A2994 RMK A01 T02780126  RH  039%=      5-min Rain = 0
KBI1 210340Z 16009KT 28/13 A2994 RMK A01 T02780125  RH  039%=      5-min Rain = 0
KBI1 210341Z 16008KT 28/13 A2994 RMK A01 T02780125  RH  039%=      5-min Rain = 0
KBI1 210342Z 16008KT 28/13 A2994 RMK A01 T02790126  RH  039%=      5-min Rain = 0
KBI1 210343Z 16009KT 28/13 A2994 RMK A01 T02780125  RH  039%=      5-min Rain = 0
KBI1 210344Z 16009KT 28/13 A2994 RMK A01 T02780125  RH  039%=      5-min Rain = 0
KBI1 210345Z 16008KT 28/13 A2994 RMK A01 T02780125  RH  039%=      5-min Rain = 0
KBI1 210346Z 16009KT 28/13 A2994 RMK A01 T02770125  RH  039%=      5-min Rain = 0
KBI1 210347Z 15008KT 28/13 A2994 RMK A01 T02770125  RH  039%=      5-min Rain = 0
KBI1 210348Z 16008KT 28/13 A2994 RMK A01 T02770125  RH  039%=      5-min Rain = 0
KBI1 210349Z 15008KT 28/12 A2994 RMK A01 T02760124  RH  039%=      5-min Rain = 0
KBI1 210350Z 16008KT 28/12 A2994 RMK A01 T02760124  RH  039%=      5-min Rain = 0
KBI1 210351Z 16009KT 28/12 A2994 RMK A01 T02760124  RH  039%=      5-min Rain = 0
KBI1 210352Z 15008KT 28/12 A2994 RMK A01 T02760124  RH  039%=      5-min Rain = 0
KBI1 210353Z 16009KT 28/12 A2994 RMK A01 T02770123  RH  039%=      5-min Rain = 0
KBI1 210354Z 15008KT 28/12 A2994 RMK A01 T02770123  RH  039%=      5-min Rain = 0
KBI1 210355Z 15008KT 28/12 A2994 RMK A01 T02770123  RH  039%=      5-min Rain = 0
KBI1 210356Z 16007KT 28/12 A2994 RMK A01 T02760122  RH  038%=      5-min Rain = 0
KBI1 210357Z 15007KT 28/12 A2994 RMK A01 T02760122  RH  038%=      5-min Rain = 0
KBI1 210358Z 16008KT 28/12 A2994 RMK A01 T02770122  RH  038%=      5-min Rain = 0
KBI1 210359Z 16008KT 28/12 A2994 RMK A01 T02760122  RH  038%=      5-min Rain = 0
KBI1 210400Z 16008G14KT 28/12 A2994 RMK A01 T02760121  RH  038%=      5-min Rain = 0
KBI1 210401Z 15008KT 28/12 A2994 RMK A01 T02770121  RH  038%=      5-min Rain = 0
KBI1 210402Z 16008KT 28/12 A2994 RMK A01 T02770121  RH  038%=      5-min Rain = 0
KBI1 210403Z 16007KT 28/12 A2994 RMK A01 T02780121  RH  038%=      5-min Rain = 0
KBI1 210404Z 16007KT 28/12 A2995 RMK A01 T02770121  RH  038%=      5-min Rain = 0
KBI1 210405Z 16009KT 28/12 A2995 RMK A01 T02770121  RH  038%=      5-min Rain = 0
KBI1 210406Z 16008KT 28/12 A2995 RMK A01 T02780121  RH  038%=      5-min Rain = 0
KBI1 210407Z 15007KT 28/12 A2995 RMK A01 T02770120  RH  038%=      5-min Rain = 0
KBI1 210408Z 16007KT 28/12 A2995 RMK A01 T02770121  RH  038%=      5-min Rain = 0
KBI1 210409Z 16009KT 28/12 A2995 RMK A01 T02770120  RH  038%=      5-min Rain = 0
KBI1 210410Z 16008KT 28/12 A2995 RMK A01 T02770120  RH  038%=      5-min Rain = 0
KBI1 210411Z 16007KT 28/12 A2995 RMK A01 T02770120  RH  038%=      5-min Rain = 0
KBI1 210412Z 16009KT 28/12 A2995 RMK A01 T02770120  RH  038%=      5-min Rain = 0
KBI1 210413Z 16007KT 28/12 A2995 RMK A01 T02770119  RH  037%=      5-min Rain = 0
KBI1 210414Z 16009KT 28/12 A2995 RMK A01 T02770119  RH  037%=      5-min Rain = 0
KBI1 210415Z 16008KT 28/12 A2995 RMK A01 T02770119  RH  037%=      5-min Rain = 0
KBI1 210416Z 16009KT 28/12 A2995 RMK A01 T02770119  RH  037%=      5-min Rain = 0
KBI1 210417Z 16009KT 28/12 A2995 RMK A01 T02770119  RH  037%=      5-min Rain = 0
KBI1 210418Z 15008KT 28/12 A2995 RMK A01 T02780119  RH  037%=      5-min Rain = 0
KBI1 210419Z 16007KT 28/12 A2995 RMK A01 T02770119  RH  037%=      5-min Rain = 0
KBI1 210420Z 16007KT 28/12 A2995 RMK A01 T02770119  RH  037%=      5-min Rain = 0
KBI1 210421Z 16009KT 28/12 A2995 RMK A01 T02760118  RH  037%=      5-min Rain = 0
KBI1 210422Z 16010KT 28/12 A2995 RMK A01 T02770118  RH  037%=      5-min Rain = 0
KBI1 210423Z 16008KT 28/12 A2995 RMK A01 T02770118  RH  037%=      5-min Rain = 0
KBI1 210424Z 16007KT 28/12 A2995 RMK A01 T02770119  RH  037%=      5-min Rain = 0
KBI1 210425Z 16007KT 28/12 A2995 RMK A01 T02760118  RH  037%=      5-min Rain = 0
KBI1 210426Z 15008KT 28/12 A2995 RMK A01 T02760118  RH  037%=      5-min Rain = 0
KBI1 210427Z 16008KT 28/12 A2995 RMK A01 T02770118  RH  037%=      5-min Rain = 0
KBI1 210428Z 16008KT 28/12 A2995 RMK A01 T02760118  RH  037%=      5-min Rain = 0
KBI1 210429Z 16008KT 28/12 A2995 RMK A01 T02760118  RH  037%=      5-min Rain = 0
KBI1 210430Z 16007KT 28/12 A2995 RMK A01 T02760118  RH  037%=      5-min Rain = 0
KBI1 210431Z 16009KT 28/12 A2995 RMK A01 T02760118  RH  037%=      5-min Rain = 0
KBI1 210432Z 15008KT 28/12 A2995 RMK A01 T02750118  RH  037%=      5-min Rain = 0
KBI1 210433Z 16006G11KT 28/12 A2995 RMK A01 T02750118  RH  038%=      5-min Rain = 0
KBI1 210434Z 16009KT 28/12 A2995 RMK A01 T02750118  RH  038%=      5-min Rain = 0
KBI1 210435Z 16008KT 28/12 A2995 RMK A01 T02750117  RH  038%=      5-min Rain = 0
KBI1 210436Z 16007KT 28/12 A2995 RMK A01 T02750118  RH  038%=      5-min Rain = 0
KBI1 210437Z 16007KT 28/12 A2995 RMK A01 T02750118  RH  038%=      5-min Rain = 0
KBI1 210438Z 16008KT 27/12 A2995 RMK A01 T02740117  RH  038%=      5-min Rain = 0
KBI1 210439Z 16007KT 27/12 A2995 RMK A01 T02740118  RH  038%=      5-min Rain = 0
KBI1 210440Z 16008KT 27/12 A2995 RMK A01 T02730118  RH  038%=      5-min Rain = 0
KBI1 210441Z 16007KT 27/12 A2995 RMK A01 T02730118  RH  038%=      5-min Rain = 0
KBI1 210442Z 16006KT 27/12 A2995 RMK A01 T02730117  RH  038%=      5-min Rain = 0
KBI1 210443Z 16007KT 27/12 A2995 RMK A01 T02730117  RH  038%=      5-min Rain = 0
KBI1 210444Z 16007KT 27/12 A2995 RMK A01 T02720117  RH  038%=      5-min Rain = 0
KBI1 210445Z 15006KT 27/12 A2995 RMK A01 T02720117  RH  038%=      5-min Rain = 0
KBI1 210446Z 16007KT 27/12 A2995 RMK A01 T02720117  RH  038%=      5-min Rain = 0
KBI1 210447Z 16006KT 27/12 A2995 RMK A01 T02720117  RH  038%=      5-min Rain = 0
KBI1 210448Z 15006KT 27/12 A2995 RMK A01 T02720117  RH  038%=      5-min Rain = 0
KBI1 210449Z 16007KT 27/12 A2995 RMK A01 T02710117  RH  038%=      5-min Rain = 0
KBI1 210450Z 16006KT 27/12 A2995 RMK A01 T02720117  RH  038%=      5-min Rain = 0
KBI1 210451Z 14006KT 27/12 A2995 RMK A01 T02710117  RH  038%=      5-min Rain = 0
KBI1 210452Z 15006KT 27/12 A2995 RMK A01 T02710117  RH  038%=      5-min Rain = 0
KBI1 210453Z 15006KT 27/12 A2995 RMK A01 T02710118  RH  038%=      5-min Rain = 0
KBI1 210454Z 15006KT 27/12 A2995 RMK A01 T02700117  RH  038%=      5-min Rain = 0
KBI1 210455Z 15007KT 27/12 A2995 RMK A01 T02700117  RH  039%=      5-min Rain = 0
KBI1 210456Z 15007KT 27/12 A2995 RMK A01 T02710117  RH  038%=      5-min Rain = 0
KBI1 210457Z 15006KT 27/12 A2995 RMK A01 T02710117  RH  038%=      5-min Rain = 0
KBI1 210458Z 15005KT 27/12 A2995 RMK A01 T02710117  RH  038%=      5-min Rain = 0
KBI1 210459Z 14005KT 27/12 A2995 RMK A01 T02700117  RH  038%=      5-min Rain = 0

Page generated in 0.1284 seconds.